Time,TemperatureF,DewpointF,PressureIn,WindDirection,WindDirectionDegrees,WindSpeedMPH,WindSpeedGustMPH,Humidity,HourlyPrecipIn,Conditions,Clouds,dailyrainin,SoftwareType,DateUTC
2013-03-25 00:00:00,75.2,71.1,29.80,North,0,0.0,0.0,87,0.00,,OVC075,0.00,VWS V14.01,2013-03-25 04:00:00,
2013-03-25 00:05:00,75.4,71.2,29.80,North,0,0.0,0.0,87,0.00,,OVC075,0.00,VWS V14.01,2013-03-25 04:05:00,
2013-03-25 00:07:00,75.4,71.2,29.80,North,0,0.0,0.0,87,0.00,,OVC075,0.00,VWS V14.01,2013-03-25 04:07:00,
2013-03-25 00:10:00,75.4,71.2,29.80,North,0,0.0,0.0,87,0.00,,OVC075,0.00,VWS V14.01,2013-03-25 04:10:00,
2013-03-25 00:11:00,75.4,71.2,29.80,North,0,0.0,0.0,87,0.00,,OVC075,0.00,VWS V14.01,2013-03-25 04:11:00,
2013-03-25 00:12:00,75.4,71.2,29.80,North,0,0.0,0.0,87,0.00,,OVC075,0.00,VWS V14.01,2013-03-25 04:12:00,
2013-03-25 00:13:00,75.4,71.6,29.80,North,0,0.0,0.0,88,0.00,,OVC075,0.00,VWS V14.01,2013-03-25 04:13:00,
2013-03-25 00:16:00,75.4,71.6,29.80,North,0,0.0,0.0,88,0.00,,OVC075,0.00,VWS V14.01,2013-03-25 04:16:00,
2013-03-25 00:17:00,75.4,71.6,29.80,North,0,0.0,0.0,88,0.00,,OVC075,0.00,VWS V14.01,2013-03-25 04:17:00,
2013-03-25 00:18:00,75.4,71.6,29.80,North,0,0.0,0.0,88,0.00,,OVC075,0.00,VWS V14.01,2013-03-25 04:18:00,
2013-03-25 00:20:00,75.4,71.6,29.80,North,0,0.0,0.0,88,0.00,,OVC075,0.00,VWS V14.01,2013-03-25 04:20:00,
2013-03-25 00:24:00,75.4,71.6,29.80,North,0,0.0,0.0,88,0.00,,OVC075,0.00,VWS V14.01,2013-03-25 04:24:00,
2013-03-25 00:25:00,75.4,71.6,29.80,North,0,0.0,0.0,88,0.00,,OVC075,0.00,VWS V14.01,2013-03-25 04:25:00,
2013-03-25 00:27:00,75.4,71.6,29.80,North,0,0.0,0.0,88,0.00,,OVC075,0.00,VWS V14.01,2013-03-25 04:27:00,
2013-03-25 00:28:00,75.4,71.6,29.80,North,0,0.0,0.0,88,0.00,,OVC075,0.00,VWS V14.01,2013-03-25 04:28:00,
2013-03-25 00:30:00,75.4,71.6,29.80,North,0,0.0,0.0,88,0.00,,OVC075,0.00,VWS V14.01,2013-03-25 04:30:00,
2013-03-25 00:33:00,75.4,71.6,29.80,North,0,0.0,0.0,88,0.00,,OVC075,0.00,VWS V14.01,2013-03-25 04:33:00,
2013-03-25 00:35:00,75.4,71.6,29.80,North,0,0.0,0.0,88,0.00,,OVC075,0.00,VWS V14.01,2013-03-25 04:35:00,
2013-03-25 00:40:00,75.4,71.6,29.80,North,0,0.0,0.0,88,0.00,,OVC075,0.00,VWS V14.01,2013-03-25 04:40:00,
2013-03-25 00:41:00,75.4,71.6,29.80,North,0,0.0,0.0,88,0.00,,OVC075,0.00,VWS V14.01,2013-03-25 04:41:00,
2013-03-25 00:43:00,75.4,71.6,29.80,North,0,0.0,0.0,88,0.00,,OVC075,0.00,VWS V14.01,2013-03-25 04:43:00,
2013-03-25 00:44:00,75.4,71.6,29.80,North,0,0.0,0.0,88,0.00,,OVC075,0.00,VWS V14.01,2013-03-25 04:44:00,
2013-03-25 00:45:00,75.4,71.2,29.80,North,0,0.0,0.0,87,0.00,,OVC075,0.00,VWS V14.01,2013-03-25 04:45:00,
2013-03-25 00:50:00,75.4,71.2,29.80,North,0,0.0,0.0,87,0.00,,OVC075,0.00,VWS V14.01,2013-03-25 04:50:00,
2013-03-25 00:51:00,75.4,71.2,29.80,North,0,0.0,0.0,87,0.00,,OVC075,0.00,VWS V14.01,2013-03-25 04:51:00,
2013-03-25 00:55:00,75.4,71.2,29.80,North,0,0.0,0.0,87,0.00,,OVC075,0.00,VWS V14.01,2013-03-25 04:55:00,
2013-03-25 00:56:00,75.4,71.2,29.80,North,0,0.0,0.0,87,0.00,,OVC075,0.00,VWS V14.01,2013-03-25 04:56:00,
2013-03-25 00:57:00,75.4,71.2,29.80,North,0,0.0,0.0,87,0.00,,OVC075,0.00,VWS V14.01,2013-03-25 04:57:00,
2013-03-25 00:58:00,75.2,71.1,29.80,North,0,0.0,0.0,87,0.00,,OVC075,0.00,VWS V14.01,2013-03-25 04:58:00,
2013-03-25 01:02:00,75.2,71.1,29.80,North,0,0.0,0.0,87,0.00,,OVC075,0.00,VWS V14.01,2013-03-25 05:02:00,
2013-03-25 01:03:00,75.2,71.1,29.80,North,0,0.0,0.0,87,0.00,,OVC075,0.00,VWS V14.01,2013-03-25 05:03:00,
2013-03-25 01:06:00,75.2,71.4,29.80,North,0,0.0,0.0,88,0.00,,OVC075,0.00,VWS V14.01,2013-03-25 05:06:00,
2013-03-25 01:07:00,75.2,71.4,29.80,North,0,0.0,0.0,88,0.00,,OVC075,0.00,VWS V14.01,2013-03-25 05:07:00,
2013-03-25 01:11:00,75.2,71.4,29.80,North,0,0.0,0.0,88,0.00,,OVC075,0.00,VWS V14.01,2013-03-25 05:11:00,
2013-03-25 01:12:00,75.2,71.4,29.80,North,0,0.0,0.0,88,0.00,,OVC075,0.00,VWS V14.01,2013-03-25 05:12:00,
2013-03-25 01:13:00,75.2,71.4,29.80,North,0,0.0,0.0,88,0.00,,OVC075,0.00,VWS V14.01,2013-03-25 05:13:00,
2013-03-25 01:14:00,75.2,71.4,29.80,North,0,0.0,0.0,88,0.00,,OVC075,0.00,VWS V14.01,2013-03-25 05:14:00,
2013-03-25 01:19:00,75.2,71.4,29.80,North,0,0.0,0.0,88,0.00,,OVC075,0.00,VWS V14.01,2013-03-25 05:19:00,
2013-03-25 01:21:00,75.2,71.4,29.80,North,0,0.0,0.0,88,0.00,,OVC075,0.00,VWS V14.01,2013-03-25 05:21:00,
2013-03-25 01:25:00,75.2,71.4,29.80,North,0,0.0,0.0,88,0.00,,OVC075,0.00,VWS V14.01,2013-03-25 05:25:00,
2013-03-25 01:26:00,75.2,71.4,29.80,North,0,0.0,0.0,88,0.00,,OVC075,0.00,VWS V14.01,2013-03-25 05:26:00,
2013-03-25 01:28:00,75.2,71.4,29.80,North,0,0.0,0.0,88,0.00,,OVC075,0.00,VWS V14.01,2013-03-25 05:28:00,
2013-03-25 01:32:00,75.2,71.4,29.80,North,0,0.0,0.0,88,0.00,,OVC075,0.00,VWS V14.01,2013-03-25 05:32:00,
2013-03-25 01:33:00,75.2,71.4,29.80,North,0,0.0,0.0,88,0.00,,OVC075,0.00,VWS V14.01,2013-03-25 05:33:00,
2013-03-25 01:34:00,75.2,71.4,29.80,North,0,0.0,0.0,88,0.00,,OVC075,0.00,VWS V14.01,2013-03-25 05:34:00,
2013-03-25 01:36:00,75.2,71.4,29.80,North,0,0.0,0.0,88,0.00,,OVC075,0.00,VWS V14.01,2013-03-25 05:36:00,
2013-03-25 01:38:00,75.2,71.4,29.80,North,0,0.0,0.0,88,0.00,,OVC075,0.00,VWS V14.01,2013-03-25 05:38:00,
2013-03-25 01:42:00,75.2,71.4,29.80,North,0,0.0,0.0,88,0.00,,OVC075,0.00,VWS V14.01,2013-03-25 05:42:00,
2013-03-25 01:44:00,75.2,71.4,29.80,North,0,0.0,0.0,88,0.00,,OVC075,0.00,VWS V14.01,2013-03-25 05:44:00,
2013-03-25 01:45:00,75.2,71.4,29.80,North,0,0.0,0.0,88,0.00,,OVC075,0.00,VWS V14.01,2013-03-25 05:45:00,
2013-03-25 01:46:00,75.2,71.4,29.80,North,0,0.0,0.0,88,0.00,,OVC075,0.00,VWS V14.01,2013-03-25 05:46:00,
2013-03-25 01:47:00,75.2,71.4,29.80,North,0,0.0,0.0,88,0.00,,OVC075,0.00,VWS V14.01,2013-03-25 05:47:00,
2013-03-25 01:51:00,75.2,71.1,29.80,North,0,0.0,0.0,87,0.00,,OVC075,0.00,VWS V14.01,2013-03-25 05:51:00,
2013-03-25 01:54:00,75.2,71.1,29.80,North,0,0.0,0.0,87,0.00,,OVC075,0.00,VWS V14.01,2013-03-25 05:54:00,
2013-03-25 01:55:00,75.2,71.1,29.80,North,0,0.0,0.0,87,0.00,,OVC075,0.00,VWS V14.01,2013-03-25 05:55:00,
2013-03-25 01:56:00,75.0,71.2,29.80,North,0,0.0,0.0,88,0.00,,OVC075,0.00,VWS V14.01,2013-03-25 05:56:00,
2013-03-25 02:00:00,75.0,71.2,29.80,North,0,0.0,0.0,88,0.00,,OVC075,0.00,VWS V14.01,2013-03-25 06:00:00,
2013-03-25 02:01:00,75.0,71.2,29.80,North,0,0.0,0.0,88,0.00,,OVC075,0.00,VWS V14.01,2013-03-25 06:01:00,
2013-03-25 02:02:00,75.0,71.2,29.80,North,0,0.0,0.0,88,0.00,,OVC075,0.00,VWS V14.01,2013-03-25 06:02:00,
2013-03-25 02:03:00,75.0,71.2,29.80,North,0,0.0,0.0,88,0.00,,OVC075,0.00,VWS V14.01,2013-03-25 06:03:00,
2013-03-25 02:05:00,75.0,71.2,29.80,North,0,0.0,0.0,88,0.00,,OVC075,0.00,VWS V14.01,2013-03-25 06:05:00,
2013-03-25 02:07:00,75.0,71.2,29.80,North,0,0.0,0.0,88,0.00,,OVC075,0.00,VWS V14.01,2013-03-25 06:07:00,
2013-03-25 02:08:00,75.0,71.2,29.80,North,0,0.0,0.0,88,0.00,,OVC075,0.00,VWS V14.01,2013-03-25 06:08:00,
2013-03-25 02:09:00,74.8,70.7,29.80,North,0,0.0,0.0,87,0.00,,OVC075,0.00,VWS V14.01,2013-03-25 06:09:00,
2013-03-25 02:14:00,74.5,70.0,29.80,North,0,0.0,0.0,86,0.00,,OVC075,0.00,VWS V14.01,2013-03-25 06:14:00,
2013-03-25 02:16:00,74.3,69.8,29.80,North,0,0.0,0.0,86,0.00,,OVC075,0.00,VWS V14.01,2013-03-25 06:16:00,
2013-03-25 02:17:00,74.3,69.8,29.80,North,0,0.0,0.0,86,0.00,,OVC075,0.00,VWS V14.01,2013-03-25 06:17:00,
2013-03-25 02:18:00,74.3,69.8,29.80,North,0,0.0,0.0,86,0.00,,OVC075,0.00,VWS V14.01,2013-03-25 06:18:00,
2013-03-25 02:19:00,74.1,69.7,29.80,North,0,0.0,0.0,86,0.00,,OVC075,0.00,VWS V14.01,2013-03-25 06:19:00,
2013-03-25 02:22:00,74.1,70.0,29.80,North,0,0.0,0.0,87,0.00,,OVC075,0.00,VWS V14.01,2013-03-25 06:22:00,
2013-03-25 02:24:00,73.9,69.8,29.80,North,0,0.0,0.0,87,0.00,,OVC075,0.00,VWS V14.01,2013-03-25 06:24:00,
2013-03-25 02:27:00,73.8,69.7,29.80,North,0,0.0,0.0,87,0.00,,OVC075,0.00,VWS V14.01,2013-03-25 06:27:00,
2013-03-25 02:28:00,73.8,70.0,29.80,North,0,0.0,0.0,88,0.00,,OVC075,0.00,VWS V14.01,2013-03-25 06:28:00,
2013-03-25 02:31:00,73.6,69.8,29.80,North,0,0.0,0.0,88,0.00,,OVC075,0.00,VWS V14.01,2013-03-25 06:31:00,
2013-03-25 02:32:00,73.6,69.8,29.80,North,0,0.0,0.0,88,0.00,,OVC075,0.00,VWS V14.01,2013-03-25 06:32:00,
2013-03-25 02:33:00,73.6,69.8,29.80,North,0,0.0,0.0,88,0.00,,OVC075,0.00,VWS V14.01,2013-03-25 06:33:00,
2013-03-25 02:34:00,73.6,69.8,29.80,North,0,0.0,0.0,88,0.00,,OVC075,0.00,VWS V14.01,2013-03-25 06:34:00,
2013-03-25 02:37:00,73.4,69.6,29.80,North,0,0.0,0.0,88,0.00,,OVC075,0.00,VWS V14.01,2013-03-25 06:37:00,
2013-03-25 02:39:00,73.4,70.0,29.80,North,0,0.0,0.0,89,0.00,,OVC075,0.00,VWS V14.01,2013-03-25 06:39:00,
2013-03-25 02:40:00,73.4,70.0,29.80,North,0,0.0,0.0,89,0.00,,OVC075,0.00,VWS V14.01,2013-03-25 06:40:00,
2013-03-25 02:42:00,73.4,70.0,29.80,North,0,0.0,0.0,89,0.00,,OVC075,0.00,VWS V14.01,2013-03-25 06:42:00,
2013-03-25 02:44:00,73.2,70.1,29.80,North,0,0.0,0.0,90,0.00,,OVC075,0.00,VWS V14.01,2013-03-25 06:44:00,
2013-03-25 02:45:00,73.2,70.1,29.80,North,0,0.0,0.0,90,0.00,,OVC075,0.00,VWS V14.01,2013-03-25 06:45:00,
2013-03-25 02:46:00,73.2,70.1,29.80,North,0,0.0,0.0,90,0.00,,OVC075,0.00,VWS V14.01,2013-03-25 06:46:00,
2013-03-25 02:49:00,73.2,70.1,29.80,North,0,0.0,0.0,90,0.00,,OVC075,0.00,VWS V14.01,2013-03-25 06:49:00,
2013-03-25 02:50:00,73.2,70.1,29.80,North,0,0.0,0.0,90,0.00,,OVC075,0.00,VWS V14.01,2013-03-25 06:50:00,
2013-03-25 02:52:00,73.2,70.1,29.80,North,0,0.0,0.0,90,0.00,,OVC075,0.00,VWS V14.01,2013-03-25 06:52:00,
2013-03-25 02:54:00,73.2,70.1,29.80,North,0,0.0,0.0,90,0.00,,OVC075,0.00,VWS V14.01,2013-03-25 06:54:00,
2013-03-25 02:56:00,73.2,70.1,29.80,North,0,0.0,0.0,90,0.00,,OVC075,0.00,VWS V14.01,2013-03-25 06:56:00,
2013-03-25 02:57:00,73.2,70.1,29.80,North,0,0.0,0.0,90,0.00,,OVC075,0.00,VWS V14.01,2013-03-25 06:57:00,
2013-03-25 02:59:00,73.2,70.1,29.80,North,0,0.0,0.0,90,0.00,,OVC075,0.00,VWS V14.01,2013-03-25 06:59:00,
2013-03-25 03:02:00,73.2,70.1,29.80,North,0,0.0,0.0,90,0.00,,OVC075,0.00,VWS V14.01,2013-03-25 07:02:00,
2013-03-25 03:03:00,73.2,70.1,29.80,North,0,0.0,0.0,90,0.00,,OVC075,0.00,VWS V14.01,2013-03-25 07:03:00,
2013-03-25 03:04:00,73.2,70.1,29.80,North,0,0.0,0.0,90,0.00,,OVC075,0.00,VWS V14.01,2013-03-25 07:04:00,
2013-03-25 03:07:00,73.4,70.0,29.80,North,0,0.0,0.0,89,0.00,,OVC075,0.00,VWS V14.01,2013-03-25 07:07:00,
2013-03-25 03:09:00,73.4,70.0,29.80,North,0,0.0,0.0,89,0.00,,OVC075,0.00,VWS V14.01,2013-03-25 07:09:00,
2013-03-25 03:12:00,73.4,70.0,29.80,North,0,0.0,0.0,89,0.00,,OVC075,0.00,VWS V14.01,2013-03-25 07:12:00,
2013-03-25 03:13:00,73.4,70.0,29.80,North,0,0.0,0.0,89,0.00,,OVC075,0.00,VWS V14.01,2013-03-25 07:13:00,
2013-03-25 03:16:00,73.4,70.0,29.80,North,0,0.0,0.0,89,0.00,,OVC075,0.00,VWS V14.01,2013-03-25 07:16:00,
2013-03-25 03:18:00,73.4,70.0,29.80,North,0,0.0,0.0,89,0.00,,OVC075,0.00,VWS V14.01,2013-03-25 07:18:00,
2013-03-25 03:19:00,73.4,69.6,29.80,North,0,0.0,0.0,88,0.00,,OVC075,0.00,VWS V14.01,2013-03-25 07:19:00,
2013-03-25 03:21:00,73.2,69.5,29.80,North,0,0.0,0.0,88,0.00,,OVC075,0.00,VWS V14.01,2013-03-25 07:21:00,
2013-03-25 03:24:00,73.2,69.5,29.80,North,0,0.0,0.0,88,0.00,,OVC075,0.00,VWS V14.01,2013-03-25 07:24:00,
2013-03-25 03:26:00,73.2,69.1,29.80,North,0,0.0,0.0,87,0.00,,OVC075,0.00,VWS V14.01,2013-03-25 07:26:00,
2013-03-25 03:27:00,73.2,69.1,29.80,North,0,0.0,0.0,87,0.00,,OVC075,0.00,VWS V14.01,2013-03-25 07:27:00,
2013-03-25 03:29:00,73.2,68.8,29.80,North,0,0.0,0.0,86,0.00,,OVC075,0.00,VWS V14.01,2013-03-25 07:29:00,
2013-03-25 03:32:00,73.2,68.8,29.80,North,0,0.0,0.0,86,0.00,,OVC075,0.00,VWS V14.01,2013-03-25 07:32:00,
2013-03-25 03:33:00,73.2,68.4,29.80,North,0,0.0,0.0,85,0.00,,OVC075,0.00,VWS V14.01,2013-03-25 07:33:00,
2013-03-25 03:34:00,73.2,68.4,29.80,North,0,0.0,0.0,85,0.00,,OVC075,0.00,VWS V14.01,2013-03-25 07:34:00,
2013-03-25 03:36:00,73.2,68.1,29.80,North,0,0.0,0.0,84,0.00,,OVC075,0.00,VWS V14.01,2013-03-25 07:36:00,
2013-03-25 03:39:00,73.2,67.4,29.80,North,0,0.0,0.0,82,0.00,,OVC075,0.00,VWS V14.01,2013-03-25 07:39:00,
2013-03-25 03:40:00,73.2,67.4,29.80,North,0,0.0,0.0,82,0.00,,OVC075,0.00,VWS V14.01,2013-03-25 07:40:00,
2013-03-25 03:42:00,73.0,66.9,29.80,North,0,0.0,0.0,81,0.00,,OVC075,0.00,VWS V14.01,2013-03-25 07:42:00,
2013-03-25 03:44:00,73.2,67.1,29.80,North,0,0.0,0.0,81,0.00,,OVC075,0.00,VWS V14.01,2013-03-25 07:44:00,
2013-03-25 03:45:00,73.2,67.1,29.80,North,0,0.0,0.0,81,0.00,,OVC075,0.00,VWS V14.01,2013-03-25 07:45:00,
2013-03-25 03:46:00,73.2,66.7,29.80,North,0,0.0,0.0,80,0.00,,OVC075,0.00,VWS V14.01,2013-03-25 07:46:00,
2013-03-25 03:49:00,73.2,66.7,29.80,North,0,0.0,0.0,80,0.00,,OVC075,0.00,VWS V14.01,2013-03-25 07:49:00,
2013-03-25 03:51:00,73.2,66.7,29.80,North,0,0.0,0.0,80,0.00,,OVC075,0.00,VWS V14.01,2013-03-25 07:51:00,
2013-03-25 03:52:00,73.0,66.5,29.80,North,0,0.0,0.0,80,0.00,,OVC075,0.00,VWS V14.01,2013-03-25 07:52:00,
2013-03-25 03:53:00,73.0,66.5,29.80,North,0,0.0,0.0,80,0.00,,OVC075,0.00,VWS V14.01,2013-03-25 07:53:00,
2013-03-25 03:58:00,73.0,66.2,29.80,North,0,0.0,0.0,79,0.00,,OVC075,0.00,VWS V14.01,2013-03-25 07:58:00,
2013-03-25 03:59:00,73.0,66.2,29.80,North,0,0.0,0.0,79,0.00,,OVC075,0.00,VWS V14.01,2013-03-25 07:59:00,
2013-03-25 04:03:00,73.0,65.8,29.80,North,0,0.0,0.0,78,0.00,,OVC075,0.00,VWS V14.01,2013-03-25 08:03:00,
2013-03-25 04:04:00,73.0,65.8,29.80,North,0,0.0,0.0,78,0.00,,OVC075,0.00,VWS V14.01,2013-03-25 08:04:00,
2013-03-25 04:08:00,73.0,65.8,29.80,North,0,0.0,0.0,78,0.00,,OVC075,0.00,VWS V14.01,2013-03-25 08:08:00,
2013-03-25 04:09:00,73.0,65.8,29.80,North,0,0.0,0.0,78,0.00,,OVC075,0.00,VWS V14.01,2013-03-25 08:09:00,
2013-03-25 04:10:00,73.0,65.8,29.80,North,0,0.0,0.0,78,0.00,,OVC075,0.00,VWS V14.01,2013-03-25 08:10:00,
2013-03-25 04:13:00,72.9,65.6,29.80,North,0,0.0,0.0,78,0.00,,OVC075,0.00,VWS V14.01,2013-03-25 08:13:00,
2013-03-25 04:15:00,72.9,65.6,29.80,North,0,0.0,0.0,78,0.00,,OVC075,0.00,VWS V14.01,2013-03-25 08:15:00,
2013-03-25 04:17:00,72.9,65.6,29.80,North,0,0.0,0.0,78,0.00,,OVC075,0.00,VWS V14.01,2013-03-25 08:17:00,
2013-03-25 04:19:00,72.9,65.6,29.80,North,0,0.0,0.0,78,0.00,,OVC075,0.00,VWS V14.01,2013-03-25 08:19:00,
2013-03-25 04:21:00,72.9,65.6,29.80,North,0,0.0,0.0,78,0.00,,OVC075,0.00,VWS V14.01,2013-03-25 08:21:00,
2013-03-25 04:22:00,72.9,65.6,29.80,North,0,0.0,0.0,78,0.00,,OVC075,0.00,VWS V14.01,2013-03-25 08:22:00,
2013-03-25 04:26:00,72.9,65.6,29.80,North,0,0.0,0.0,78,0.00,,OVC075,0.00,VWS V14.01,2013-03-25 08:26:00,
2013-03-25 04:27:00,72.9,65.6,29.80,North,0,0.0,0.0,78,0.00,,OVC075,0.00,VWS V14.01,2013-03-25 08:27:00,
2013-03-25 04:31:00,72.9,65.6,29.80,North,0,0.0,0.0,78,0.00,,OVC075,0.00,VWS V14.01,2013-03-25 08:31:00,
2013-03-25 04:32:00,72.7,65.4,29.80,North,0,0.0,0.0,78,0.00,,OVC075,0.00,VWS V14.01,2013-03-25 08:32:00,
2013-03-25 04:34:00,72.7,65.4,29.80,North,0,0.0,0.0,78,0.00,,OVC075,0.00,VWS V14.01,2013-03-25 08:34:00,
2013-03-25 04:37:00,72.7,65.4,29.80,North,0,0.0,0.0,78,0.00,,OVC075,0.00,VWS V14.01,2013-03-25 08:37:00,
2013-03-25 04:39:00,72.7,65.4,29.80,North,0,0.0,0.0,78,0.00,,OVC075,0.00,VWS V14.01,2013-03-25 08:39:00,
2013-03-25 04:42:00,72.5,65.3,29.80,North,0,0.0,0.0,78,0.00,,OVC075,0.00,VWS V14.01,2013-03-25 08:42:00,
2013-03-25 04:43:00,72.5,65.3,29.80,North,0,0.0,0.0,78,0.00,,OVC075,0.00,VWS V14.01,2013-03-25 08:43:00,
2013-03-25 04:46:00,72.5,65.3,29.80,North,0,0.0,0.0,78,0.00,,OVC075,0.00,VWS V14.01,2013-03-25 08:46:00,
2013-03-25 04:47:00,72.5,65.3,29.80,North,0,0.0,0.0,78,0.00,,OVC075,0.00,VWS V14.01,2013-03-25 08:47:00,
2013-03-25 04:48:00,72.5,65.3,29.80,North,0,0.0,0.0,78,0.00,,OVC075,0.00,VWS V14.01,2013-03-25 08:48:00,
2013-03-25 04:49:00,72.5,65.3,29.80,North,0,0.0,0.0,78,0.00,,OVC075,0.00,VWS V14.01,2013-03-25 08:49:00,
2013-03-25 04:52:00,72.3,65.4,29.80,North,0,0.0,0.0,79,0.00,,OVC075,0.00,VWS V14.01,2013-03-25 08:52:00,
2013-03-25 04:53:00,72.3,65.4,29.80,North,0,0.0,0.0,79,0.00,,OVC075,0.00,VWS V14.01,2013-03-25 08:53:00,
2013-03-25 04:55:00,72.3,65.4,29.80,North,0,0.0,0.0,79,0.00,,OVC075,0.00,VWS V14.01,2013-03-25 08:55:00,
2013-03-25 04:56:00,72.3,65.4,29.80,North,0,0.0,0.0,79,0.00,,OVC075,0.00,VWS V14.01,2013-03-25 08:56:00,
2013-03-25 04:59:00,72.3,65.4,29.80,North,0,0.0,0.0,79,0.00,,OVC075,0.00,VWS V14.01,2013-03-25 08:59:00,
2013-03-25 05:01:00,72.1,65.3,29.80,North,0,0.0,0.0,79,0.00,,OVC075,0.00,VWS V14.01,2013-03-25 09:01:00,
2013-03-25 05:02:00,72.1,65.3,29.80,North,0,0.0,0.0,79,0.00,,OVC075,0.00,VWS V14.01,2013-03-25 09:02:00,
2013-03-25 05:04:00,72.1,65.3,29.80,North,0,0.0,0.0,79,0.00,,OVC075,0.00,VWS V14.01,2013-03-25 09:04:00,
2013-03-25 05:06:00,72.1,65.3,29.80,North,0,0.0,0.0,79,0.00,,OVC075,0.00,VWS V14.01,2013-03-25 09:06:00,
2013-03-25 05:07:00,72.1,65.3,29.80,North,0,0.0,0.0,79,0.00,,OVC075,0.00,VWS V14.01,2013-03-25 09:07:00,
2013-03-25 05:09:00,72.0,65.1,29.80,North,0,0.0,0.0,79,0.00,,OVC075,0.00,VWS V14.01,2013-03-25 09:09:00,
2013-03-25 05:11:00,72.0,65.1,29.80,North,0,0.0,0.0,79,0.00,,OVC075,0.00,VWS V14.01,2013-03-25 09:11:00,
2013-03-25 05:12:00,72.0,65.1,29.80,North,0,0.0,0.0,79,0.00,,OVC075,0.00,VWS V14.01,2013-03-25 09:12:00,
2013-03-25 05:14:00,72.0,65.1,29.80,North,0,0.0,0.0,79,0.00,,OVC075,0.00,VWS V14.01,2013-03-25 09:14:00,
2013-03-25 05:15:00,72.0,65.1,29.80,North,0,0.0,0.0,79,0.00,,OVC075,0.00,VWS V14.01,2013-03-25 09:15:00,
2013-03-25 05:17:00,72.0,65.1,29.80,North,0,0.0,0.0,79,0.00,,OVC075,0.00,VWS V14.01,2013-03-25 09:17:00,
2013-03-25 05:21:00,71.8,64.9,29.80,North,0,0.0,0.0,79,0.00,,OVC075,0.00,VWS V14.01,2013-03-25 09:21:00,
2013-03-25 05:22:00,71.8,64.9,29.80,North,0,0.0,0.0,79,0.00,,OVC075,0.00,VWS V14.01,2013-03-25 09:22:00,
2013-03-25 05:24:00,71.8,64.9,29.80,North,0,0.0,0.0,79,0.00,,OVC075,0.00,VWS V14.01,2013-03-25 09:24:00,
2013-03-25 05:26:00,71.8,64.9,29.80,North,0,0.0,0.0,79,0.00,,OVC075,0.00,VWS V14.01,2013-03-25 09:26:00,
2013-03-25 05:27:00,71.6,64.4,29.80,North,0,0.0,0.0,78,0.00,,OVC075,0.00,VWS V14.01,2013-03-25 09:27:00,
2013-03-25 05:30:00,71.6,64.4,29.80,North,0,0.0,0.0,78,0.00,,OVC075,0.00,VWS V14.01,2013-03-25 09:30:00,
2013-03-25 05:31:00,71.6,64.4,29.80,North,0,0.0,0.0,78,0.00,,OVC075,0.00,VWS V14.01,2013-03-25 09:31:00,
2013-03-25 05:32:00,71.6,64.4,29.80,North,0,0.0,0.0,78,0.00,,OVC075,0.00,VWS V14.01,2013-03-25 09:32:00,
2013-03-25 05:35:00,71.6,64.4,29.80,North,0,0.0,0.0,78,0.00,,OVC075,0.00,VWS V14.01,2013-03-25 09:35:00,
2013-03-25 05:36:00,71.4,64.2,29.80,North,0,0.0,0.0,78,0.00,,OVC075,0.00,VWS V14.01,2013-03-25 09:36:00,
2013-03-25 05:37:00,71.4,64.2,29.80,North,0,0.0,0.0,78,0.00,,OVC075,0.00,VWS V14.01,2013-03-25 09:37:00,
2013-03-25 05:40:00,71.4,63.8,29.80,North,0,0.0,0.0,77,0.00,,OVC075,0.00,VWS V14.01,2013-03-25 09:40:00,
2013-03-25 05:41:00,71.4,63.8,29.80,North,0,0.0,0.0,77,0.00,,OVC075,0.00,VWS V14.01,2013-03-25 09:41:00,
2013-03-25 05:42:00,71.4,63.8,29.80,North,0,0.0,0.0,77,0.00,,OVC075,0.00,VWS V14.01,2013-03-25 09:42:00,
2013-03-25 05:47:00,71.2,63.7,29.80,North,0,0.0,0.0,77,0.00,,OVC075,0.00,VWS V14.01,2013-03-25 09:47:00,
2013-03-25 05:49:00,71.2,63.3,29.80,North,0,0.0,0.0,76,0.00,,OVC075,0.00,VWS V14.01,2013-03-25 09:49:00,
2013-03-25 05:51:00,71.2,63.3,29.80,North,0,0.0,0.0,76,0.00,,OVC075,0.00,VWS V14.01,2013-03-25 09:51:00,
2013-03-25 05:54:00,71.2,63.3,29.80,North,0,0.0,0.0,76,0.00,,OVC075,0.00,VWS V14.01,2013-03-25 09:54:00,
2013-03-25 05:55:00,71.2,63.3,29.80,North,0,0.0,0.0,76,0.00,,OVC075,0.00,VWS V14.01,2013-03-25 09:55:00,
2013-03-25 05:56:00,71.1,63.1,29.80,North,0,0.0,0.0,76,0.00,,OVC075,0.00,VWS V14.01,2013-03-25 09:56:00,
2013-03-25 05:57:00,71.1,63.1,29.80,North,0,0.0,0.0,76,0.00,,OVC075,0.00,VWS V14.01,2013-03-25 09:57:00,
2013-03-25 06:02:00,71.1,62.0,29.80,North,0,0.0,0.0,73,0.00,,OVC075,0.00,VWS V14.01,2013-03-25 10:02:00,
2013-03-25 06:03:00,71.1,62.0,29.80,North,0,0.0,0.0,73,0.00,,OVC075,0.00,VWS V14.01,2013-03-25 10:03:00,
2013-03-25 06:05:00,71.1,61.6,29.80,North,0,0.0,0.0,72,0.00,,OVC075,0.00,VWS V14.01,2013-03-25 10:05:00,
2013-03-25 06:08:00,71.1,61.2,29.80,North,0,0.0,0.0,71,0.00,,OVC075,0.00,VWS V14.01,2013-03-25 10:08:00,
2013-03-25 06:10:00,71.1,61.2,29.80,North,0,0.0,0.0,71,0.00,,OVC075,0.00,VWS V14.01,2013-03-25 10:10:00,
2013-03-25 06:15:00,71.1,61.2,29.80,North,0,0.0,0.0,71,0.00,,OVC075,0.00,VWS V14.01,2013-03-25 10:15:00,
2013-03-25 06:16:00,71.1,61.2,29.80,North,0,0.0,0.0,71,0.00,,OVC075,0.00,VWS V14.01,2013-03-25 10:16:00,
2013-03-25 06:20:00,70.9,60.6,29.80,North,0,0.0,0.0,70,0.00,,OVC075,0.00,VWS V14.01,2013-03-25 10:20:00,
2013-03-25 06:21:00,70.9,61.0,29.80,North,0,0.0,0.0,71,0.00,,OVC075,0.00,VWS V14.01,2013-03-25 10:21:00,
2013-03-25 06:25:00,70.9,61.0,29.80,North,0,0.0,0.0,71,0.00,,OVC075,0.00,VWS V14.01,2013-03-25 10:25:00,
2013-03-25 06:28:00,70.9,61.0,29.80,North,0,0.0,0.0,71,0.00,,OVC075,0.00,VWS V14.01,2013-03-25 10:28:00,
2013-03-25 06:30:00,70.9,61.0,29.80,North,0,0.0,0.0,71,0.00,,OVC075,0.00,VWS V14.01,2013-03-25 10:30:00,
2013-03-25 06:31:00,70.9,60.6,29.80,North,0,0.0,0.0,70,0.00,,OVC075,0.00,VWS V14.01,2013-03-25 10:31:00,
2013-03-25 06:35:00,70.7,60.8,29.80,North,0,0.0,0.0,71,0.00,,OVC075,0.00,VWS V14.01,2013-03-25 10:35:00,
2013-03-25 06:37:00,70.7,60.8,29.80,North,0,0.0,0.0,71,0.00,,OVC075,0.00,VWS V14.01,2013-03-25 10:37:00,
2013-03-25 06:38:00,70.7,60.8,29.80,North,0,0.0,0.0,71,0.00,,OVC075,0.00,VWS V14.01,2013-03-25 10:38:00,
2013-03-25 06:40:00,70.7,60.8,29.80,North,0,0.0,0.0,71,0.00,,OVC075,0.00,VWS V14.01,2013-03-25 10:40:00,
2013-03-25 06:41:00,70.7,60.8,29.80,North,0,0.0,0.0,71,0.00,,OVC075,0.00,VWS V14.01,2013-03-25 10:41:00,
2013-03-25 06:42:00,70.7,60.5,29.80,North,0,0.0,0.0,70,0.00,,OVC075,0.00,VWS V14.01,2013-03-25 10:42:00,
2013-03-25 06:47:00,70.5,60.3,29.80,North,0,0.0,0.0,70,0.00,,OVC075,0.00,VWS V14.01,2013-03-25 10:47:00,
2013-03-25 06:49:00,70.5,60.3,29.80,North,0,0.0,0.0,70,0.00,,OVC075,0.00,VWS V14.01,2013-03-25 10:49:00,
2013-03-25 06:52:00,70.5,60.3,29.80,North,0,0.0,0.0,70,0.00,,OVC075,0.00,VWS V14.01,2013-03-25 10:52:00,
2013-03-25 06:54:00,70.5,60.3,29.80,North,0,0.0,0.0,70,0.00,,OVC075,0.00,VWS V14.01,2013-03-25 10:54:00,
2013-03-25 06:55:00,70.3,60.1,29.80,North,0,0.0,0.0,70,0.00,,OVC075,0.00,VWS V14.01,2013-03-25 10:55:00,
2013-03-25 06:59:00,70.3,60.1,29.83,North,0,0.0,0.0,70,0.00,,OVC075,0.00,VWS V14.01,2013-03-25 10:59:00,
2013-03-25 07:00:00,70.3,59.7,29.83,North,0,0.0,0.0,69,0.00,,OVC075,0.00,VWS V14.01,2013-03-25 11:00:00,
2013-03-25 07:05:00,70.3,59.7,29.83,North,0,0.0,0.0,69,0.00,,OVC075,0.00,VWS V14.01,2013-03-25 11:05:00,
2013-03-25 07:07:00,70.3,59.7,29.83,North,0,0.0,0.0,69,0.00,,OVC075,0.00,VWS V14.01,2013-03-25 11:07:00,
2013-03-25 07:10:00,70.2,59.1,29.83,North,0,0.0,0.0,68,0.00,,OVC075,0.00,VWS V14.01,2013-03-25 11:10:00,
2013-03-25 07:13:00,70.2,59.1,29.83,North,0,0.0,0.0,68,0.00,,OVC075,0.00,VWS V14.01,2013-03-25 11:13:00,
2013-03-25 07:15:00,70.2,59.1,29.83,North,0,0.0,0.0,68,0.00,,OVC075,0.00,VWS V14.01,2013-03-25 11:15:00,
2013-03-25 07:18:00,70.2,59.1,29.83,North,0,0.0,0.0,68,0.00,,OVC075,0.00,VWS V14.01,2013-03-25 11:18:00,
2013-03-25 07:21:00,70.0,59.0,29.83,North,0,0.0,0.0,68,0.00,,OVC075,0.00,VWS V14.01,2013-03-25 11:21:00,
2013-03-25 07:23:00,70.0,59.0,29.83,North,0,0.0,0.0,68,0.00,,OVC075,0.00,VWS V14.01,2013-03-25 11:23:00,
2013-03-25 07:24:00,70.0,59.0,29.83,North,0,0.0,0.0,68,0.00,,OVC075,0.00,VWS V14.01,2013-03-25 11:24:00,
2013-03-25 07:29:00,70.0,59.0,29.83,North,0,0.0,0.0,68,0.00,,OVC075,0.00,VWS V14.01,2013-03-25 11:29:00,
2013-03-25 07:30:00,70.0,59.0,29.83,North,0,0.0,0.0,68,0.00,,OVC075,0.00,VWS V14.01,2013-03-25 11:30:00,
2013-03-25 07:36:00,69.8,58.8,29.83,North,0,0.0,0.0,68,0.00,,OVC075,0.00,VWS V14.01,2013-03-25 11:36:00,
2013-03-25 07:37:00,69.8,58.8,29.83,North,0,0.0,0.0,68,0.00,,OVC075,0.00,VWS V14.01,2013-03-25 11:37:00,
2013-03-25 07:42:00,69.6,59.0,29.83,North,0,0.0,0.0,69,0.00,,OVC075,0.00,VWS V14.01,2013-03-25 11:42:00,
2013-03-25 07:44:00,69.6,59.0,29.83,North,0,0.0,0.0,69,0.00,,OVC075,0.00,VWS V14.01,2013-03-25 11:44:00,
2013-03-25 07:47:00,69.6,59.4,29.83,North,0,0.0,0.0,70,0.00,,OVC075,0.00,VWS V14.01,2013-03-25 11:47:00,
2013-03-25 07:48:00,69.6,59.4,29.83,North,0,0.0,0.0,70,0.00,,OVC075,0.00,VWS V14.01,2013-03-25 11:48:00,
2013-03-25 07:49:00,69.6,59.4,29.83,North,0,0.0,0.0,70,0.00,,OVC075,0.00,VWS V14.01,2013-03-25 11:49:00,
2013-03-25 07:52:00,69.4,59.2,29.83,North,0,0.0,0.0,70,0.00,,OVC075,0.00,VWS V14.01,2013-03-25 11:52:00,
2013-03-25 07:57:00,69.4,59.2,29.83,North,0,0.0,0.0,70,0.00,,OVC075,0.00,VWS V14.01,2013-03-25 11:57:00,
2013-03-25 08:00:00,69.4,59.6,29.85,North,0,0.0,0.0,71,0.00,,OVC075,0.00,VWS V14.01,2013-03-25 12:00:00,
2013-03-25 08:04:00,69.3,59.5,29.85,North,0,0.0,0.0,71,0.00,,OVC075,0.00,VWS V14.01,2013-03-25 12:04:00,
2013-03-25 08:06:00,69.3,59.5,29.85,North,0,0.0,0.0,71,0.00,,OVC075,0.00,VWS V14.01,2013-03-25 12:06:00,
2013-03-25 08:09:00,69.3,59.9,29.85,North,0,0.0,0.0,72,0.00,,OVC075,0.00,VWS V14.01,2013-03-25 12:09:00,
2013-03-25 08:10:00,69.3,59.9,29.85,North,0,0.0,0.0,72,0.00,,OVC075,0.00,VWS V14.01,2013-03-25 12:10:00,
2013-03-25 08:11:00,69.3,59.9,29.85,North,0,0.0,0.0,72,0.00,,OVC075,0.00,VWS V14.01,2013-03-25 12:11:00,
2013-03-25 08:12:00,69.4,60.0,29.85,North,0,0.0,0.0,72,0.00,,OVC075,0.00,VWS V14.01,2013-03-25 12:12:00,
2013-03-25 08:15:00,69.4,60.0,29.85,North,0,0.0,0.0,72,0.00,,OVC075,0.00,VWS V14.01,2013-03-25 12:15:00,
2013-03-25 08:17:00,69.4,60.0,29.85,North,0,0.0,0.0,72,0.00,,OVC075,0.00,VWS V14.01,2013-03-25 12:17:00,
2013-03-25 08:20:00,69.4,60.0,29.85,North,0,0.0,0.0,72,0.00,,OVC075,0.00,VWS V14.01,2013-03-25 12:20:00,
2013-03-25 08:21:00,69.4,60.0,29.85,North,0,0.0,0.0,72,0.00,,OVC075,0.00,VWS V14.01,2013-03-25 12:21:00,
2013-03-25 08:25:00,69.3,59.5,29.85,North,0,0.0,0.0,71,0.00,,OVC075,0.00,VWS V14.01,2013-03-25 12:25:00,
2013-03-25 08:29:00,69.3,59.1,29.85,North,0,0.0,0.0,70,0.00,,OVC075,0.00,VWS V14.01,2013-03-25 12:29:00,
2013-03-25 08:30:00,69.3,59.1,29.85,North,0,0.0,0.0,70,0.00,,OVC075,0.00,VWS V14.01,2013-03-25 12:30:00,
2013-03-25 08:31:00,69.3,59.1,29.85,North,0,0.0,0.0,70,0.00,,OVC075,0.00,VWS V14.01,2013-03-25 12:31:00,
2013-03-25 08:35:00,69.3,59.5,29.85,North,0,0.0,0.0,71,0.00,,OVC075,0.00,VWS V14.01,2013-03-25 12:35:00,
2013-03-25 08:36:00,69.3,59.5,29.85,North,0,0.0,0.0,71,0.00,,OVC075,0.00,VWS V14.01,2013-03-25 12:36:00,
2013-03-25 08:37:00,69.3,59.5,29.85,North,0,0.0,0.0,71,0.00,,OVC075,0.00,VWS V14.01,2013-03-25 12:37:00,
2013-03-25 08:41:00,69.3,59.1,29.85,North,0,0.0,0.0,70,0.00,,OVC075,0.00,VWS V14.01,2013-03-25 12:41:00,
2013-03-25 08:42:00,69.3,59.1,29.85,North,0,0.0,0.0,70,0.00,,OVC075,0.00,VWS V14.01,2013-03-25 12:42:00,
2013-03-25 08:44:00,69.1,58.9,29.85,North,0,0.0,0.0,70,0.00,,OVC075,0.00,VWS V14.01,2013-03-25 12:44:00,
2013-03-25 08:48:00,69.1,58.1,29.85,North,0,0.0,0.0,68,0.00,,OVC075,0.00,VWS V14.01,2013-03-25 12:48:00,
2013-03-25 08:50:00,69.1,58.1,29.85,North,0,0.0,0.0,68,0.00,,OVC075,0.00,VWS V14.01,2013-03-25 12:50:00,
2013-03-25 08:52:00,69.1,58.1,29.85,North,0,0.0,0.0,68,0.00,,OVC075,0.00,VWS V14.01,2013-03-25 12:52:00,
2013-03-25 08:53:00,69.1,58.1,29.85,North,0,0.0,0.0,68,0.00,,OVC075,0.00,VWS V14.01,2013-03-25 12:53:00,
2013-03-25 08:58:00,69.1,56.8,29.88,North,0,0.0,0.0,65,0.00,,OVC075,0.00,VWS V14.01,2013-03-25 12:58:00,
2013-03-25 08:59:00,69.1,56.4,29.88,North,0,0.0,0.0,64,0.00,,OVC075,0.00,VWS V14.01,2013-03-25 12:59:00,
2013-03-25 09:02:00,69.1,56.0,29.88,North,0,0.0,0.0,63,0.00,,OVC075,0.00,VWS V14.01,2013-03-25 13:02:00,
2013-03-25 09:03:00,69.1,56.0,29.88,North,0,0.0,0.0,63,0.00,,OVC075,0.00,VWS V14.01,2013-03-25 13:03:00,
2013-03-25 09:07:00,69.1,55.5,29.88,North,0,0.0,0.0,62,0.00,,OVC075,0.00,VWS V14.01,2013-03-25 13:07:00,
2013-03-25 09:08:00,69.1,55.5,29.88,North,0,0.0,0.0,62,0.00,,OVC075,0.00,VWS V14.01,2013-03-25 13:08:00,
2013-03-25 09:09:00,69.1,55.5,29.88,North,0,0.0,0.0,62,0.00,,OVC075,0.00,VWS V14.01,2013-03-25 13:09:00,
2013-03-25 09:12:00,69.1,54.6,29.88,North,0,0.0,0.0,60,0.00,,OVC075,0.00,VWS V14.01,2013-03-25 13:12:00,
2013-03-25 09:13:00,69.1,54.6,29.88,North,0,0.0,0.0,60,0.00,,OVC075,0.00,VWS V14.01,2013-03-25 13:13:00,
2013-03-25 09:15:00,69.1,54.2,29.88,North,0,0.0,0.0,59,0.00,,OVC075,0.00,VWS V14.01,2013-03-25 13:15:00,
2013-03-25 09:16:00,69.1,53.2,29.88,North,0,0.0,0.0,57,0.00,,OVC075,0.00,VWS V14.01,2013-03-25 13:16:00,
2013-03-25 09:20:00,69.3,52.4,29.88,North,0,0.0,0.0,55,0.00,,SCT026,0.00,VWS V14.01,2013-03-25 13:20:00,
2013-03-25 09:25:00,69.1,47.5,29.88,North,0,0.0,0.0,46,0.00,,SCT026,0.00,VWS V14.01,2013-03-25 13:25:00,
2013-03-25 09:27:00,69.1,46.9,29.88,North,0,0.0,0.0,45,0.00,,SCT026,0.00,VWS V14.01,2013-03-25 13:27:00,
2013-03-25 09:30:00,69.1,46.9,29.91,North,0,0.0,0.0,45,0.00,,SCT026,0.00,VWS V14.01,2013-03-25 13:30:00,
2013-03-25 09:32:00,69.1,46.9,29.91,North,0,0.0,0.0,45,0.00,,SCT026,0.00,VWS V14.01,2013-03-25 13:32:00,
2013-03-25 09:35:00,69.1,47.5,29.91,North,0,0.0,0.0,46,0.00,,SCT026,0.00,VWS V14.01,2013-03-25 13:35:00,
2013-03-25 09:37:00,69.1,47.5,29.91,North,0,0.0,0.0,46,0.00,,SCT026,0.00,VWS V14.01,2013-03-25 13:37:00,
2013-03-25 09:38:00,69.1,46.3,29.91,North,0,0.0,0.0,44,0.00,,SCT026,0.00,VWS V14.01,2013-03-25 13:38:00,
2013-03-25 09:40:00,69.3,46.4,29.91,North,0,0.0,0.0,44,0.00,,SCT026,0.00,VWS V14.01,2013-03-25 13:40:00,
2013-03-25 09:41:00,69.3,47.0,29.91,North,0,0.0,0.0,45,0.00,,SCT026,0.00,VWS V14.01,2013-03-25 13:41:00,
2013-03-25 09:45:00,69.4,47.2,29.91,North,0,0.0,0.0,45,0.00,,SCT026,0.00,VWS V14.01,2013-03-25 13:45:00,
2013-03-25 09:46:00,69.4,47.2,29.91,North,0,0.0,0.0,45,0.00,,SCT026,0.00,VWS V14.01,2013-03-25 13:46:00,
2013-03-25 09:51:00,69.6,46.8,29.91,North,0,0.0,0.0,44,0.00,,SCT026,0.00,VWS V14.01,2013-03-25 13:51:00,
2013-03-25 09:52:00,69.6,46.2,29.91,North,0,0.0,0.0,43,0.00,,SCT026,0.00,VWS V14.01,2013-03-25 13:52:00,
2013-03-25 09:56:00,69.6,46.2,29.91,North,0,0.0,0.0,43,0.00,,SCT026,0.00,VWS V14.01,2013-03-25 13:56:00,
2013-03-25 09:57:00,69.6,46.2,29.91,North,0,0.0,0.0,43,0.00,,SCT026,0.00,VWS V14.01,2013-03-25 13:57:00,
2013-03-25 09:58:00,69.6,46.2,29.91,North,0,0.0,0.0,43,0.00,,SCT026,0.00,VWS V14.01,2013-03-25 13:58:00,
2013-03-25 10:03:00,69.6,46.8,29.91,North,0,0.0,0.0,44,0.00,,SCT026,0.00,VWS V14.01,2013-03-25 14:03:00,
2013-03-25 10:06:00,69.8,46.3,29.91,North,0,0.0,0.0,43,0.00,,SCT026,0.00,VWS V14.01,2013-03-25 14:06:00,
2013-03-25 10:10:00,69.8,46.9,29.91,North,0,0.0,0.0,44,0.00,,SCT026,0.00,VWS V14.01,2013-03-25 14:10:00,
2013-03-25 10:15:00,70.0,46.5,29.94,North,0,0.0,0.0,43,0.00,,SCT026,0.00,VWS V14.01,2013-03-25 14:15:00,
2013-03-25 10:16:00,70.0,47.1,29.94,North,0,0.0,0.0,44,0.00,,SCT026,0.00,VWS V14.01,2013-03-25 14:16:00,
2013-03-25 10:20:00,70.0,46.5,29.94,North,0,0.0,0.0,43,0.00,,SCT026,0.00,VWS V14.01,2013-03-25 14:20:00,
2013-03-25 10:25:00,70.2,46.6,29.94,North,0,0.0,0.0,43,0.00,,SCT026,0.00,VWS V14.01,2013-03-25 14:25:00,
2013-03-25 10:26:00,70.2,46.0,29.94,North,0,0.0,0.0,42,0.00,,SCT026,0.00,VWS V14.01,2013-03-25 14:26:00,
2013-03-25 10:30:00,70.2,46.0,29.94,North,0,0.0,0.0,42,0.00,,SCT026,0.00,VWS V14.01,2013-03-25 14:30:00,
2013-03-25 10:31:00,70.3,46.2,29.94,North,0,0.0,0.0,42,0.00,,SCT026,0.00,VWS V14.01,2013-03-25 14:31:00,
2013-03-25 10:32:00,70.3,46.2,29.94,North,0,0.0,0.0,42,0.00,,SCT026,0.00,VWS V14.01,2013-03-25 14:32:00,
2013-03-25 10:35:00,70.3,46.2,29.94,North,0,0.0,0.0,42,0.00,,SCT026,0.00,VWS V14.01,2013-03-25 14:35:00,
2013-03-25 10:36:00,70.5,46.3,29.94,North,0,0.0,0.0,42,0.00,,SCT026,0.00,VWS V14.01,2013-03-25 14:36:00,
2013-03-25 10:40:00,70.5,45.7,29.94,North,0,0.0,0.0,41,0.00,,SCT026,0.00,VWS V14.01,2013-03-25 14:40:00,
2013-03-25 10:41:00,70.5,45.7,29.94,North,0,0.0,0.0,41,0.00,,SCT026,0.00,VWS V14.01,2013-03-25 14:41:00,
2013-03-25 10:42:00,70.7,46.5,29.94,North,0,0.0,0.0,42,0.00,,SCT026,0.00,VWS V14.01,2013-03-25 14:42:00,
2013-03-25 10:44:00,70.7,45.2,29.94,North,0,0.0,0.0,40,0.00,,SCT026,0.00,VWS V14.01,2013-03-25 14:44:00,
2013-03-25 10:46:00,70.7,43.2,29.94,North,0,0.0,0.0,37,0.00,,SCT026,0.00,VWS V14.01,2013-03-25 14:46:00,
2013-03-25 10:49:00,70.9,41.9,29.94,North,0,0.0,0.0,35,0.00,,SCT026,0.00,VWS V14.01,2013-03-25 14:49:00,
2013-03-25 10:51:00,70.9,42.6,29.94,North,0,0.0,0.0,36,0.00,,SCT026,0.00,VWS V14.01,2013-03-25 14:51:00,
2013-03-25 10:55:00,70.9,42.6,29.94,North,0,0.0,0.0,36,0.00,,SCT026,0.00,VWS V14.01,2013-03-25 14:55:00,
2013-03-25 10:56:00,70.9,43.3,29.94,North,0,0.0,0.0,37,0.00,,SCT026,0.00,VWS V14.01,2013-03-25 14:56:00,
2013-03-25 10:57:00,70.9,43.3,29.94,North,0,0.0,0.0,37,0.00,,SCT026,0.00,VWS V14.01,2013-03-25 14:57:00,
2013-03-25 10:59:00,71.1,43.5,29.94,North,0,0.0,0.0,37,0.00,,SCT026,0.00,VWS V14.01,2013-03-25 14:59:00,
2013-03-25 11:01:00,71.1,42.8,29.94,North,0,0.0,0.0,36,0.00,,SCT026,0.00,VWS V14.01,2013-03-25 15:01:00,
2013-03-25 11:02:00,71.2,42.9,29.94,North,0,0.0,0.0,36,0.00,,SCT026,0.00,VWS V14.01,2013-03-25 15:02:00,
2013-03-25 11:05:00,71.4,43.1,29.94,North,0,0.0,0.0,36,0.00,,SCT026,0.00,VWS V14.01,2013-03-25 15:05:00,
2013-03-25 11:07:00,71.4,43.1,29.94,North,0,0.0,0.0,36,0.00,,SCT026,0.00,VWS V14.01,2013-03-25 15:07:00,
2013-03-25 11:10:00,71.6,43.3,29.94,North,0,0.0,0.0,36,0.00,,SCT026,0.00,VWS V14.01,2013-03-25 15:10:00,
2013-03-25 11:12:00,71.8,42.7,29.94,North,0,0.0,0.0,35,0.00,,SCT026,0.00,VWS V14.01,2013-03-25 15:12:00,
2013-03-25 11:15:00,71.8,41.9,29.94,North,0,0.0,0.0,34,0.00,,SCT026,0.00,VWS V14.01,2013-03-25 15:15:00,
2013-03-25 11:16:00,71.8,41.2,29.94,North,0,0.0,0.0,33,0.00,,SCT026,0.00,VWS V14.01,2013-03-25 15:16:00,
2013-03-25 11:18:00,71.8,41.2,29.94,North,0,0.0,0.0,33,0.00,,SCT026,0.00,VWS V14.01,2013-03-25 15:18:00,
2013-03-25 11:19:00,71.8,41.9,29.94,North,0,0.0,0.0,34,0.00,,SCT026,0.00,VWS V14.01,2013-03-25 15:19:00,
2013-03-25 11:21:00,71.8,41.9,29.94,North,0,0.0,0.0,34,0.00,,SCT026,0.00,VWS V14.01,2013-03-25 15:21:00,
2013-03-25 11:23:00,71.8,41.9,29.94,North,0,0.0,0.0,34,0.00,,SCT026,0.00,VWS V14.01,2013-03-25 15:23:00,
2013-03-25 11:24:00,71.8,41.9,29.94,North,0,0.0,0.0,34,0.00,,SCT026,0.00,VWS V14.01,2013-03-25 15:24:00,
2013-03-25 11:25:00,72.0,42.1,29.94,North,0,0.0,0.0,34,0.00,,SCT026,0.00,VWS V14.01,2013-03-25 15:25:00,
2013-03-25 11:27:00,71.8,42.7,29.94,North,0,0.0,0.0,35,0.00,,SCT026,0.00,VWS V14.01,2013-03-25 15:27:00,
2013-03-25 11:28:00,71.8,42.7,29.94,North,0,0.0,0.0,35,0.00,,SCT026,0.00,VWS V14.01,2013-03-25 15:28:00,
2013-03-25 11:32:00,71.8,42.7,29.94,North,0,0.0,0.0,35,0.00,,SCT026,0.00,VWS V14.01,2013-03-25 15:32:00,
2013-03-25 11:37:00,71.8,43.4,29.94,North,0,0.0,0.0,36,0.00,,SCT026,0.00,VWS V14.01,2013-03-25 15:37:00,
2013-03-25 11:38:00,71.8,43.4,29.94,North,0,0.0,0.0,36,0.00,,SCT026,0.00,VWS V14.01,2013-03-25 15:38:00,
2013-03-25 11:42:00,71.8,44.1,29.94,North,0,0.0,0.0,37,0.00,,SCT026,0.00,VWS V14.01,2013-03-25 15:42:00,
2013-03-25 11:43:00,72.0,44.3,29.94,North,0,0.0,0.0,37,0.00,,SCT026,0.00,VWS V14.01,2013-03-25 15:43:00,
2013-03-25 11:44:00,72.0,44.3,29.94,North,0,0.0,0.0,37,0.00,,SCT026,0.00,VWS V14.01,2013-03-25 15:44:00,
2013-03-25 11:49:00,72.1,44.5,29.94,North,0,0.0,0.0,37,0.00,,SCT026,0.00,VWS V14.01,2013-03-25 15:49:00,
2013-03-25 11:50:00,72.1,44.5,29.94,North,0,0.0,0.0,37,0.00,,SCT026,0.00,VWS V14.01,2013-03-25 15:50:00,
2013-03-25 11:51:00,72.1,44.5,29.94,North,0,0.0,0.0,37,0.00,,SCT026,0.00,VWS V14.01,2013-03-25 15:51:00,
2013-03-25 11:54:00,72.3,44.6,29.94,North,0,0.0,0.0,37,0.00,,SCT026,0.00,VWS V14.01,2013-03-25 15:54:00,
2013-03-25 11:57:00,72.3,44.6,29.94,North,0,0.0,0.0,37,0.00,,SCT026,0.00,VWS V14.01,2013-03-25 15:57:00,
2013-03-25 11:58:00,72.5,44.8,29.94,North,0,0.0,0.0,37,0.00,,SCT026,0.00,VWS V14.01,2013-03-25 15:58:00,
2013-03-25 11:59:00,72.5,45.5,29.94,North,0,0.0,0.0,38,0.00,,SCT026,0.00,VWS V14.01,2013-03-25 15:59:00,
2013-03-25 12:04:00,72.9,45.1,29.94,North,0,0.0,0.0,37,0.00,,SCT026,0.00,VWS V14.01,2013-03-25 16:04:00,
2013-03-25 12:06:00,73.0,45.2,29.94,North,0,0.0,0.0,37,0.00,,SCT026,0.00,VWS V14.01,2013-03-25 16:06:00,
2013-03-25 12:09:00,73.4,44.8,29.94,North,0,0.0,0.0,36,0.00,,SCT026,0.00,VWS V14.01,2013-03-25 16:09:00,
2013-03-25 12:10:00,73.6,45.7,29.94,North,0,0.0,0.0,37,0.00,,SCT026,0.00,VWS V14.01,2013-03-25 16:10:00,
2013-03-25 12:13:00,73.8,45.2,29.94,North,0,0.0,0.0,36,0.00,,SCT026,0.00,VWS V14.01,2013-03-25 16:13:00,
2013-03-25 12:14:00,73.9,44.6,29.94,North,0,0.0,0.0,35,0.00,,SCT026,0.00,VWS V14.01,2013-03-25 16:14:00,
2013-03-25 12:15:00,74.1,44.0,29.94,North,0,0.0,0.0,34,0.00,,SCT026,0.00,VWS V14.01,2013-03-25 16:15:00,
2013-03-25 12:20:00,74.1,43.2,29.94,North,0,0.0,0.0,33,0.00,,SCT026,0.00,VWS V14.01,2013-03-25 16:20:00,
2013-03-25 12:21:00,73.9,43.0,29.94,North,0,0.0,0.0,33,0.00,,SCT026,0.00,VWS V14.01,2013-03-25 16:21:00,
2013-03-25 12:22:00,73.9,43.0,29.94,North,0,0.0,0.0,33,0.00,,SCT026,0.00,VWS V14.01,2013-03-25 16:22:00,
2013-03-25 12:25:00,73.8,43.7,29.94,North,0,0.0,0.0,34,0.00,,SCT026,0.00,VWS V14.01,2013-03-25 16:25:00,
2013-03-25 12:27:00,73.8,43.7,29.94,North,0,0.0,0.0,34,0.00,,SCT026,0.00,VWS V14.01,2013-03-25 16:27:00,
2013-03-25 12:30:00,73.8,43.7,29.94,North,0,0.0,0.0,34,0.00,,SCT026,0.00,VWS V14.01,2013-03-25 16:30:00,
2013-03-25 12:32:00,73.9,43.8,29.94,North,0,0.0,0.0,34,0.00,,SCT026,0.00,VWS V14.01,2013-03-25 16:32:00,
2013-03-25 12:33:00,73.9,43.8,29.94,North,0,0.0,0.0,34,0.00,,SCT026,0.00,VWS V14.01,2013-03-25 16:33:00,
2013-03-25 12:34:00,74.1,44.0,29.94,North,0,0.0,0.0,34,0.00,,SCT026,0.00,VWS V14.01,2013-03-25 16:34:00,
2013-03-25 12:37:00,74.5,44.3,29.94,North,0,0.0,0.0,34,0.00,,SCT026,0.00,VWS V14.01,2013-03-25 16:37:00,
2013-03-25 12:38:00,74.7,44.5,29.94,North,0,0.0,0.0,34,0.00,,SCT026,0.00,VWS V14.01,2013-03-25 16:38:00,
2013-03-25 12:40:00,74.8,44.6,29.94,North,0,0.0,0.0,34,0.00,,SCT026,0.00,VWS V14.01,2013-03-25 16:40:00,
2013-03-25 12:42:00,75.0,44.8,29.94,North,0,0.0,0.0,34,0.00,,SCT026,0.00,VWS V14.01,2013-03-25 16:42:00,
2013-03-25 12:43:00,75.2,44.2,29.94,North,0,0.0,0.0,33,0.00,,SCT026,0.00,VWS V14.01,2013-03-25 16:43:00,
2013-03-25 12:45:00,75.4,44.3,29.94,North,0,0.0,0.0,33,0.00,,SCT026,0.00,VWS V14.01,2013-03-25 16:45:00,
2013-03-25 12:46:00,75.4,44.3,29.94,North,0,0.0,0.0,33,0.00,,SCT026,0.00,VWS V14.01,2013-03-25 16:46:00,
2013-03-25 12:48:00,75.4,44.3,29.94,North,0,0.0,0.0,33,0.00,,SCT026,0.00,VWS V14.01,2013-03-25 16:48:00,
2013-03-25 12:50:00,75.6,44.5,29.94,North,0,0.0,0.0,33,0.00,,SCT026,0.00,VWS V14.01,2013-03-25 16:50:00,
2013-03-25 12:52:00,75.9,44.8,29.94,North,0,0.0,0.0,33,0.00,,SCT026,0.00,VWS V14.01,2013-03-25 16:52:00,
2013-03-25 12:55:00,76.5,45.2,29.94,North,0,0.0,0.0,33,0.00,,SCT026,0.00,VWS V14.01,2013-03-25 16:55:00,
2013-03-25 12:57:00,76.6,44.6,29.94,North,0,0.0,0.0,32,0.00,,SCT026,0.00,VWS V14.01,2013-03-25 16:57:00,
2013-03-25 12:59:00,76.8,44.8,29.94,North,0,0.0,0.0,32,0.00,,SCT026,0.00,VWS V14.01,2013-03-25 16:59:00,
2013-03-25 13:01:00,76.6,43.8,29.94,North,0,0.0,0.0,31,0.00,,SCT026,0.00,VWS V14.01,2013-03-25 17:01:00,
2013-03-25 13:04:00,76.5,43.6,29.94,North,0,0.0,0.0,31,0.00,,SCT026,0.00,VWS V14.01,2013-03-25 17:04:00,
2013-03-25 13:05:00,76.3,43.5,29.94,North,0,0.0,0.0,31,0.00,,SCT026,0.00,VWS V14.01,2013-03-25 17:05:00,
2013-03-25 13:08:00,76.1,43.3,29.94,North,0,0.0,0.0,31,0.00,,SCT026,0.00,VWS V14.01,2013-03-25 17:08:00,
2013-03-25 13:11:00,76.1,43.3,29.94,North,0,0.0,0.0,31,0.00,,SCT026,0.00,VWS V14.01,2013-03-25 17:11:00,
2013-03-25 13:12:00,76.1,43.3,29.94,North,0,0.0,0.0,31,0.00,,SCT026,0.00,VWS V14.01,2013-03-25 17:12:00,
2013-03-25 13:13:00,76.1,43.3,29.94,North,0,0.0,0.0,31,0.00,,SCT026,0.00,VWS V14.01,2013-03-25 17:13:00,
2013-03-25 13:18:00,76.1,43.3,29.94,North,0,0.0,0.0,31,0.00,,SCT026,0.00,VWS V14.01,2013-03-25 17:18:00,
2013-03-25 13:19:00,76.1,42.5,29.94,North,0,0.0,0.0,30,0.00,,SCT026,0.00,VWS V14.01,2013-03-25 17:19:00,
2013-03-25 13:22:00,75.9,41.4,29.94,North,0,0.0,0.0,29,0.00,,SCT026,0.00,VWS V14.01,2013-03-25 17:22:00,
2013-03-25 13:23:00,75.9,42.3,29.94,North,0,0.0,0.0,30,0.00,,SCT026,0.00,VWS V14.01,2013-03-25 17:23:00,
2013-03-25 13:24:00,75.9,41.4,29.94,North,0,0.0,0.0,29,0.00,,SCT026,0.00,VWS V14.01,2013-03-25 17:24:00,
2013-03-25 13:28:00,75.6,39.3,29.94,North,0,0.0,0.0,27,0.00,,SCT026,0.00,VWS V14.01,2013-03-25 17:28:00,
2013-03-25 13:29:00,75.4,41.0,29.94,North,0,0.0,0.0,29,0.00,,SCT026,0.00,VWS V14.01,2013-03-25 17:29:00,
2013-03-25 13:31:00,75.2,40.8,29.94,North,0,0.0,0.0,29,0.00,,SCT026,0.00,VWS V14.01,2013-03-25 17:31:00,
2013-03-25 13:34:00,75.0,42.4,29.94,North,0,0.0,0.0,31,0.00,,SCT026,0.00,VWS V14.01,2013-03-25 17:34:00,
2013-03-25 13:36:00,75.0,42.4,29.94,North,0,0.0,0.0,31,0.00,,SCT026,0.00,VWS V14.01,2013-03-25 17:36:00,
2013-03-25 13:39:00,75.2,42.5,29.94,North,0,0.0,0.0,31,0.00,,SCT026,0.00,VWS V14.01,2013-03-25 17:39:00,
2013-03-25 13:44:00,75.2,40.8,29.94,North,0,0.0,0.0,29,0.00,,SCT026,0.00,VWS V14.01,2013-03-25 17:44:00,
2013-03-25 13:46:00,75.2,40.8,29.94,North,0,0.0,0.0,29,0.00,,SCT026,0.00,VWS V14.01,2013-03-25 17:46:00,
2013-03-25 13:49:00,75.0,42.4,29.94,North,0,0.0,0.0,31,0.00,,SCT026,0.00,VWS V14.01,2013-03-25 17:49:00,
2013-03-25 13:50:00,75.0,42.4,29.94,North,0,0.0,0.0,31,0.00,,SCT026,0.00,VWS V14.01,2013-03-25 17:50:00,
2013-03-25 13:55:00,75.4,42.7,29.94,North,0,0.0,0.0,31,0.00,,SCT026,0.00,VWS V14.01,2013-03-25 17:55:00,
2013-03-25 13:57:00,75.6,42.0,29.94,North,0,0.0,0.0,30,0.00,,SCT026,0.00,VWS V14.01,2013-03-25 17:57:00,
2013-03-25 14:00:00,75.9,42.3,29.91,North,0,0.0,0.0,30,0.00,,SCT026,0.00,VWS V14.01,2013-03-25 18:00:00,
2013-03-25 14:02:00,75.9,41.4,29.91,North,0,0.0,0.0,29,0.00,,SCT026,0.00,VWS V14.01,2013-03-25 18:02:00,
2013-03-25 14:04:00,75.9,41.4,29.91,North,0,0.0,0.0,29,0.00,,SCT026,0.00,VWS V14.01,2013-03-25 18:04:00,
2013-03-25 14:07:00,75.7,41.3,29.91,North,0,0.0,0.0,29,0.00,,SCT026,0.00,VWS V14.01,2013-03-25 18:07:00,
2013-03-25 14:09:00,75.6,41.1,29.91,North,0,0.0,0.0,29,0.00,,SCT026,0.00,VWS V14.01,2013-03-25 18:09:00,
2013-03-25 14:10:00,75.6,42.0,29.91,North,0,0.0,0.0,30,0.00,,SCT026,0.00,VWS V14.01,2013-03-25 18:10:00,
2013-03-25 14:15:00,75.6,40.2,29.91,North,0,0.0,0.0,28,0.00,,SCT026,0.00,VWS V14.01,2013-03-25 18:15:00,
2013-03-25 14:16:00,75.6,40.2,29.91,North,0,0.0,0.0,28,0.00,,SCT026,0.00,VWS V14.01,2013-03-25 18:16:00,
2013-03-25 14:21:00,75.7,38.5,29.91,North,0,0.0,0.0,26,0.00,,SCT026,0.00,VWS V14.01,2013-03-25 18:21:00,
2013-03-25 14:23:00,75.7,39.4,29.91,North,0,0.0,0.0,27,0.00,,SCT026,0.00,VWS V14.01,2013-03-25 18:23:00,
2013-03-25 14:26:00,76.3,39.9,29.91,North,0,0.0,0.0,27,0.00,,SCT026,0.00,VWS V14.01,2013-03-25 18:26:00,
2013-03-25 14:28:00,76.6,40.2,29.91,North,0,0.0,0.0,27,0.00,,SCT026,0.00,VWS V14.01,2013-03-25 18:28:00,
2013-03-25 14:29:00,76.8,40.3,29.91,North,0,0.0,0.0,27,0.00,,SCT026,0.00,VWS V14.01,2013-03-25 18:29:00,
2013-03-25 14:34:00,77.0,39.5,29.91,North,0,0.0,0.0,26,0.00,,SCT026,0.00,VWS V14.01,2013-03-25 18:34:00,
2013-03-25 14:36:00,76.8,39.4,29.91,North,0,0.0,0.0,26,0.00,,SCT026,0.00,VWS V14.01,2013-03-25 18:36:00,
2013-03-25 14:41:00,76.5,41.9,29.91,North,0,0.0,0.0,29,0.00,,SCT026,0.00,VWS V14.01,2013-03-25 18:41:00,
2013-03-25 14:42:00,76.3,38.9,29.91,North,0,0.0,0.0,26,0.00,,SCT026,0.00,VWS V14.01,2013-03-25 18:42:00,
2013-03-25 14:46:00,76.1,39.7,29.91,North,0,0.0,0.0,27,0.00,,SCT026,0.00,VWS V14.01,2013-03-25 18:46:00,
2013-03-25 14:48:00,76.1,39.7,29.91,North,0,0.0,0.0,27,0.00,,SCT026,0.00,VWS V14.01,2013-03-25 18:48:00,
2013-03-25 14:51:00,76.1,38.8,29.91,North,0,0.0,0.0,26,0.00,,SCT026,0.00,VWS V14.01,2013-03-25 18:51:00,
2013-03-25 14:52:00,76.1,38.8,29.91,North,0,0.0,0.0,26,0.00,,SCT026,0.00,VWS V14.01,2013-03-25 18:52:00,
2013-03-25 14:54:00,76.1,39.7,29.91,North,0,0.0,0.0,27,0.00,,SCT026,0.00,VWS V14.01,2013-03-25 18:54:00,
2013-03-25 14:56:00,76.1,39.7,29.91,North,0,0.0,0.0,27,0.00,,SCT026,0.00,VWS V14.01,2013-03-25 18:56:00,
2013-03-25 15:00:00,76.3,39.9,29.91,North,0,0.0,0.0,27,0.00,,SCT026,0.00,VWS V14.01,2013-03-25 19:00:00,
2013-03-25 15:02:00,76.6,39.2,29.91,North,0,0.0,0.0,26,0.00,,SCT026,0.00,VWS V14.01,2013-03-25 19:02:00,
2013-03-25 15:05:00,76.6,40.2,29.91,North,0,0.0,0.0,27,0.00,,SCT026,0.00,VWS V14.01,2013-03-25 19:05:00,
2013-03-25 15:06:00,76.8,40.3,29.91,North,0,0.0,0.0,27,0.00,,SCT026,0.00,VWS V14.01,2013-03-25 19:06:00,
2013-03-25 15:10:00,77.2,40.7,29.91,North,0,0.0,0.0,27,0.00,,SCT026,0.00,VWS V14.01,2013-03-25 19:10:00,
2013-03-25 15:11:00,77.4,40.8,29.91,North,0,0.0,0.0,27,0.00,,SCT026,0.00,VWS V14.01,2013-03-25 19:11:00,
2013-03-25 15:15:00,77.7,42.0,29.91,North,0,0.0,0.0,28,0.00,,SCT026,0.00,VWS V14.01,2013-03-25 19:15:00,
2013-03-25 15:18:00,78.4,41.7,29.91,North,0,0.0,0.0,27,0.00,,SCT026,0.00,VWS V14.01,2013-03-25 19:18:00,
2013-03-25 15:21:00,78.6,39.9,29.91,North,0,0.0,0.0,25,0.00,,SCT026,0.00,VWS V14.01,2013-03-25 19:21:00,
2013-03-25 15:23:00,78.6,38.8,29.91,North,0,0.0,0.0,24,0.00,,SCT026,0.00,VWS V14.01,2013-03-25 19:23:00,
2013-03-25 15:26:00,78.4,37.6,29.91,North,0,0.0,0.0,23,0.00,,SCT026,0.00,VWS V14.01,2013-03-25 19:26:00,
2013-03-25 15:29:00,78.3,38.5,29.91,North,0,0.0,0.0,24,0.00,,SCT026,0.00,VWS V14.01,2013-03-25 19:29:00,
2013-03-25 15:31:00,78.3,37.5,29.91,North,0,0.0,0.0,23,0.00,,SCT026,0.00,VWS V14.01,2013-03-25 19:31:00,
2013-03-25 15:32:00,78.3,37.5,29.91,North,0,0.0,0.0,23,0.00,,SCT026,0.00,VWS V14.01,2013-03-25 19:32:00,
2013-03-25 15:35:00,78.1,36.2,29.91,North,0,0.0,0.0,22,0.00,,SCT026,0.00,VWS V14.01,2013-03-25 19:35:00,
2013-03-25 15:36:00,78.1,36.2,29.91,North,0,0.0,0.0,22,0.00,,SCT026,0.00,VWS V14.01,2013-03-25 19:36:00,
2013-03-25 15:40:00,77.9,36.0,29.91,North,0,0.0,0.0,22,0.00,,SCT026,0.00,VWS V14.01,2013-03-25 19:40:00,
2013-03-25 15:41:00,77.9,34.9,29.91,North,0,0.0,0.0,21,0.00,,SCT026,0.00,VWS V14.01,2013-03-25 19:41:00,
2013-03-25 15:42:00,77.9,36.0,29.91,North,0,0.0,0.0,22,0.00,,SCT026,0.00,VWS V14.01,2013-03-25 19:42:00,
2013-03-25 15:44:00,77.7,35.9,29.88,North,0,0.0,0.0,22,0.00,,SCT026,0.00,VWS V14.01,2013-03-25 19:44:00,
2013-03-25 15:47:00,77.5,35.7,29.88,North,0,0.0,0.0,22,0.00,,SCT026,0.00,VWS V14.01,2013-03-25 19:47:00,
2013-03-25 15:48:00,77.5,35.7,29.88,North,0,0.0,0.0,22,0.00,,SCT026,0.00,VWS V14.01,2013-03-25 19:48:00,
2013-03-25 15:50:00,77.4,35.6,29.88,North,0,0.0,0.0,22,0.00,,SCT026,0.00,VWS V14.01,2013-03-25 19:50:00,
2013-03-25 15:51:00,77.4,35.6,29.88,North,0,0.0,0.0,22,0.00,,SCT026,0.00,VWS V14.01,2013-03-25 19:51:00,
2013-03-25 15:52:00,77.4,35.6,29.88,North,0,0.0,0.0,22,0.00,,SCT026,0.00,VWS V14.01,2013-03-25 19:52:00,
2013-03-25 15:56:00,77.7,35.9,29.88,North,0,0.0,0.0,22,0.00,,SCT026,0.00,VWS V14.01,2013-03-25 19:56:00,
2013-03-25 15:58:00,77.9,34.9,29.88,North,0,0.0,0.0,21,0.00,,SCT026,0.00,VWS V14.01,2013-03-25 19:58:00,
2013-03-25 15:59:00,77.9,34.9,29.91,North,0,0.0,0.0,21,0.00,,SCT026,0.00,VWS V14.01,2013-03-25 19:59:00,
2013-03-25 16:04:00,77.5,40.0,29.91,North,0,0.0,0.0,26,0.00,,SCT026,0.00,VWS V14.01,2013-03-25 20:04:00,
2013-03-25 16:05:00,77.4,39.8,29.91,North,0,0.0,0.0,26,0.00,,SCT026,0.00,VWS V14.01,2013-03-25 20:05:00,
2013-03-25 16:09:00,76.8,38.4,29.91,North,0,0.0,0.0,25,0.00,,SCT026,0.00,VWS V14.01,2013-03-25 20:09:00,
2013-03-25 16:10:00,76.8,39.4,29.91,North,0,0.0,0.0,26,0.00,,SCT026,0.00,VWS V14.01,2013-03-25 20:10:00,
2013-03-25 16:12:00,76.8,40.3,29.91,North,0,0.0,0.0,27,0.00,,SCT026,0.00,VWS V14.01,2013-03-25 20:12:00,
2013-03-25 16:15:00,76.5,43.6,29.88,North,0,0.0,0.0,31,0.00,,SCT026,0.00,VWS V14.01,2013-03-25 20:15:00,
2013-03-25 16:17:00,76.3,43.5,29.88,North,0,0.0,0.0,31,0.00,,SCT026,0.00,VWS V14.01,2013-03-25 20:17:00,
2013-03-25 16:18:00,76.1,43.3,29.88,North,0,0.0,0.0,31,0.00,,SCT026,0.00,VWS V14.01,2013-03-25 20:18:00,
2013-03-25 16:22:00,75.7,43.0,29.88,North,0,0.0,0.0,31,0.00,,SCT026,0.00,VWS V14.01,2013-03-25 20:22:00,
2013-03-25 16:23:00,75.7,43.0,29.88,North,0,0.0,0.0,31,0.00,,SCT026,0.00,VWS V14.01,2013-03-25 20:23:00,
2013-03-25 16:24:00,75.6,43.7,29.88,North,0,0.0,0.0,32,0.00,,SCT026,0.00,VWS V14.01,2013-03-25 20:24:00,
2013-03-25 16:27:00,75.4,43.5,29.88,North,0,0.0,0.0,32,0.00,,SCT026,0.00,VWS V14.01,2013-03-25 20:27:00,
2013-03-25 16:28:00,75.4,43.5,29.88,North,0,0.0,0.0,32,0.00,,SCT026,0.00,VWS V14.01,2013-03-25 20:28:00,
2013-03-25 16:29:00,75.4,43.5,29.91,North,0,0.0,0.0,32,0.00,,SCT026,0.00,VWS V14.01,2013-03-25 20:29:00,
2013-03-25 16:31:00,75.2,43.3,29.91,North,0,0.0,0.0,32,0.00,,SCT026,0.00,VWS V14.01,2013-03-25 20:31:00,
2013-03-25 16:34:00,74.8,43.8,29.91,North,0,0.0,0.0,33,0.00,,SCT026,0.00,VWS V14.01,2013-03-25 20:34:00,
2013-03-25 16:36:00,74.7,43.7,29.91,North,0,0.0,0.0,33,0.00,,SCT026,0.00,VWS V14.01,2013-03-25 20:36:00,
2013-03-25 16:37:00,74.7,43.7,29.91,North,0,0.0,0.0,33,0.00,,SCT026,0.00,VWS V14.01,2013-03-25 20:37:00,
2013-03-25 16:39:00,74.5,44.3,29.91,North,0,0.0,0.0,34,0.00,,SCT026,0.00,VWS V14.01,2013-03-25 20:39:00,
2013-03-25 16:41:00,74.3,44.1,29.91,North,0,0.0,0.0,34,0.00,,SCT026,0.00,VWS V14.01,2013-03-25 20:41:00,
2013-03-25 16:44:00,74.1,44.0,29.91,North,0,0.0,0.0,34,0.00,,SCT026,0.00,VWS V14.01,2013-03-25 20:44:00,
2013-03-25 16:47:00,73.9,44.6,29.91,North,0,0.0,0.0,35,0.00,,SCT026,0.00,VWS V14.01,2013-03-25 20:47:00,
2013-03-25 16:49:00,73.8,45.2,29.91,North,0,0.0,0.0,36,0.00,,SCT026,0.00,VWS V14.01,2013-03-25 20:49:00,
2013-03-25 16:51:00,73.8,45.2,29.91,North,0,0.0,0.0,36,0.00,,SCT026,0.00,VWS V14.01,2013-03-25 20:51:00,
2013-03-25 16:52:00,73.8,45.2,29.91,North,0,0.0,0.0,36,0.00,,SCT026,0.00,VWS V14.01,2013-03-25 20:52:00,
2013-03-25 16:58:00,73.6,45.7,29.91,North,0,0.0,0.0,37,0.00,,SCT026,0.00,VWS V14.01,2013-03-25 20:58:00,
2013-03-25 16:59:00,73.6,45.7,29.91,North,0,0.0,0.0,37,0.00,,SCT026,0.00,VWS V14.01,2013-03-25 20:59:00,
2013-03-25 17:02:00,73.6,45.0,29.91,North,0,0.0,0.0,36,0.00,,SCT026,0.00,VWS V14.01,2013-03-25 21:02:00,
2013-03-25 17:04:00,73.6,45.0,29.91,North,0,0.0,0.0,36,0.00,,SCT026,0.00,VWS V14.01,2013-03-25 21:04:00,
2013-03-25 17:05:00,73.4,44.8,29.91,North,0,0.0,0.0,36,0.00,,SCT026,0.00,VWS V14.01,2013-03-25 21:05:00,
2013-03-25 17:07:00,73.4,45.6,29.91,North,0,0.0,0.0,37,0.00,,SCT026,0.00,VWS V14.01,2013-03-25 21:07:00,
2013-03-25 17:10:00,73.2,44.7,29.91,North,0,0.0,0.0,36,0.00,,SCT026,0.00,VWS V14.01,2013-03-25 21:10:00,
2013-03-25 17:14:00,72.9,45.1,29.91,North,0,0.0,0.0,37,0.00,,SCT026,0.00,VWS V14.01,2013-03-25 21:14:00,
2013-03-25 17:15:00,72.9,44.4,29.91,North,0,0.0,0.0,36,0.00,,SCT026,0.00,VWS V14.01,2013-03-25 21:15:00,
2013-03-25 17:16:00,72.7,44.9,29.91,North,0,0.0,0.0,37,0.00,,SCT026,0.00,VWS V14.01,2013-03-25 21:16:00,
2013-03-25 17:20:00,72.5,44.8,29.91,North,0,0.0,0.0,37,0.00,,SCT026,0.00,VWS V14.01,2013-03-25 21:20:00,
2013-03-25 17:22:00,72.3,43.9,29.91,North,0,0.0,0.0,36,0.00,,SCT026,0.00,VWS V14.01,2013-03-25 21:22:00,
2013-03-25 17:23:00,72.3,43.2,29.91,North,0,0.0,0.0,35,0.00,,SCT026,0.00,VWS V14.01,2013-03-25 21:23:00,
2013-03-25 17:28:00,71.8,44.1,29.91,North,0,0.0,0.0,37,0.00,,SCT026,0.00,VWS V14.01,2013-03-25 21:28:00,
2013-03-25 17:30:00,71.8,44.8,29.91,North,0,0.0,0.0,38,0.00,,SCT026,0.00,VWS V14.01,2013-03-25 21:30:00,
2013-03-25 17:32:00,71.6,45.4,29.91,North,0,0.0,0.0,39,0.00,,SCT026,0.00,VWS V14.01,2013-03-25 21:32:00,
2013-03-25 17:34:00,71.4,44.5,29.91,North,0,0.0,0.0,38,0.00,,SCT026,0.00,VWS V14.01,2013-03-25 21:34:00,
2013-03-25 17:35:00,71.4,44.5,29.91,North,0,0.0,0.0,38,0.00,,SCT026,0.00,VWS V14.01,2013-03-25 21:35:00,
2013-03-25 17:37:00,71.4,44.5,29.91,North,0,0.0,0.0,38,0.00,,SCT026,0.00,VWS V14.01,2013-03-25 21:37:00,
2013-03-25 17:42:00,71.2,45.0,29.91,North,0,0.0,0.0,39,0.00,,SCT026,0.00,VWS V14.01,2013-03-25 21:42:00,
2013-03-25 17:43:00,71.2,45.7,29.91,North,0,0.0,0.0,40,0.00,,SCT026,0.00,VWS V14.01,2013-03-25 21:43:00,
2013-03-25 17:45:00,71.2,44.4,29.91,North,0,0.0,0.0,38,0.00,,SCT026,0.00,VWS V14.01,2013-03-25 21:45:00,
2013-03-25 17:48:00,71.2,45.0,29.91,North,0,0.0,0.0,39,0.00,,SCT026,0.00,VWS V14.01,2013-03-25 21:48:00,
2013-03-25 17:50:00,71.1,44.9,29.91,North,0,0.0,0.0,39,0.00,,SCT026,0.00,VWS V14.01,2013-03-25 21:50:00,
2013-03-25 17:54:00,71.1,45.5,29.91,North,0,0.0,0.0,40,0.00,,SCT026,0.00,VWS V14.01,2013-03-25 21:54:00,
2013-03-25 17:55:00,71.1,46.8,29.91,North,0,0.0,0.0,42,0.00,,SCT026,0.00,VWS V14.01,2013-03-25 21:55:00,
2013-03-25 17:58:00,71.1,45.5,29.91,North,0,0.0,0.0,40,0.00,,SCT026,0.00,VWS V14.01,2013-03-25 21:58:00,
2013-03-25 17:59:00,70.9,45.4,29.91,North,0,0.0,0.0,40,0.00,,SCT026,0.00,VWS V14.01,2013-03-25 21:59:00,
2013-03-25 18:00:00,70.9,46.0,29.91,North,0,0.0,0.0,41,0.00,,SCT026,0.00,VWS V14.01,2013-03-25 22:00:00,
2013-03-25 18:03:00,70.9,46.7,29.91,North,0,0.0,0.0,42,0.00,,SCT026,0.00,VWS V14.01,2013-03-25 22:03:00,
2013-03-25 18:13:00,70.3,45.5,29.94,North,0,0.0,0.0,41,0.00,,,0.00,VWS V14.01,2013-03-25 22:13:00,
2013-03-25 18:15:00,70.3,46.2,29.94,North,0,0.0,0.0,42,0.00,,,0.00,VWS V14.01,2013-03-25 22:15:00,
2013-03-25 18:16:00,70.3,45.5,29.94,North,0,0.0,0.0,41,0.00,,,0.00,VWS V14.01,2013-03-25 22:16:00,
2013-03-25 18:17:00,70.3,45.5,29.94,North,0,0.0,0.0,41,0.00,,,0.00,VWS V14.01,2013-03-25 22:17:00,
2013-03-25 18:21:00,70.3,46.2,29.94,North,0,0.0,0.0,42,0.00,,,0.00,VWS V14.01,2013-03-25 22:21:00,
2013-03-25 18:23:00,70.3,46.2,29.94,North,0,0.0,0.0,42,0.00,,,0.00,VWS V14.01,2013-03-25 22:23:00,
2013-03-25 18:26:00,70.5,46.3,29.94,North,0,0.0,0.0,42,0.00,,,0.00,VWS V14.01,2013-03-25 22:26:00,
2013-03-25 18:27:00,70.5,46.3,29.94,North,0,0.0,0.0,42,0.00,,,0.00,VWS V14.01,2013-03-25 22:27:00,
2013-03-25 18:29:00,70.7,46.5,29.94,North,0,0.0,0.0,42,0.00,,,0.00,VWS V14.01,2013-03-25 22:29:00,
2013-03-25 18:30:00,70.7,46.5,29.94,North,0,0.0,0.0,42,0.00,,,0.00,VWS V14.01,2013-03-25 22:30:00,
2013-03-25 18:34:00,70.7,46.5,29.94,North,0,0.0,0.0,42,0.00,,,0.00,VWS V14.01,2013-03-25 22:34:00,
2013-03-25 18:36:00,70.5,46.3,29.94,North,0,0.0,0.0,42,0.00,,,0.00,VWS V14.01,2013-03-25 22:36:00,
2013-03-25 18:38:00,70.5,46.3,29.94,North,0,0.0,0.0,42,0.00,,,0.00,VWS V14.01,2013-03-25 22:38:00,
2013-03-25 18:40:00,70.3,46.2,29.94,North,0,0.0,0.0,42,0.00,,,0.00,VWS V14.01,2013-03-25 22:40:00,
2013-03-25 18:42:00,70.3,46.8,29.94,North,0,0.0,0.0,43,0.00,,,0.00,VWS V14.01,2013-03-25 22:42:00,
2013-03-25 18:44:00,70.3,46.2,29.94,North,0,0.0,0.0,42,0.00,,,0.00,VWS V14.01,2013-03-25 22:44:00,
2013-03-25 18:47:00,70.3,46.2,29.94,North,0,0.0,0.0,42,0.00,,,0.00,VWS V14.01,2013-03-25 22:47:00,
2013-03-25 18:48:00,70.3,46.2,29.94,North,0,0.0,0.0,42,0.00,,,0.00,VWS V14.01,2013-03-25 22:48:00,
2013-03-25 18:50:00,70.5,47.0,29.94,North,0,0.0,0.0,43,0.00,,,0.00,VWS V14.01,2013-03-25 22:50:00,
2013-03-25 18:52:00,70.5,47.0,29.94,North,0,0.0,0.0,43,0.00,,,0.00,VWS V14.01,2013-03-25 22:52:00,
2013-03-25 18:55:00,70.7,46.5,29.94,North,0,0.0,0.0,42,0.00,,,0.00,VWS V14.01,2013-03-25 22:55:00,
2013-03-25 18:58:00,70.7,46.5,29.94,North,0,0.0,0.0,42,0.00,,,0.00,VWS V14.01,2013-03-25 22:58:00,
2013-03-25 18:59:00,70.5,46.3,29.94,North,0,0.0,0.0,42,0.00,,,0.00,VWS V14.01,2013-03-25 22:59:00,
2013-03-25 19:00:00,70.5,46.3,29.94,North,0,0.0,0.0,42,0.00,,,0.00,VWS V14.01,2013-03-25 23:00:00,
2013-03-25 19:02:00,70.5,46.3,29.94,North,0,0.0,0.0,42,0.00,,,0.00,VWS V14.01,2013-03-25 23:02:00,
2013-03-25 19:06:00,70.3,46.2,29.94,North,0,0.0,0.0,42,0.00,,,0.00,VWS V14.01,2013-03-25 23:06:00,
2013-03-25 19:07:00,70.3,46.2,29.94,North,0,0.0,0.0,42,0.00,,,0.00,VWS V14.01,2013-03-25 23:07:00,
2013-03-25 19:08:00,70.2,46.0,29.94,North,0,0.0,0.0,42,0.00,,,0.00,VWS V14.01,2013-03-25 23:08:00,
2013-03-25 19:10:00,70.2,43.4,29.94,North,0,0.0,0.0,38,0.00,,,0.00,VWS V14.01,2013-03-25 23:10:00,
2013-03-25 19:12:00,70.2,41.3,29.94,North,0,0.0,0.0,35,0.00,,,0.00,VWS V14.01,2013-03-25 23:12:00,
2013-03-25 19:14:00,70.2,33.7,29.97,North,0,0.0,0.0,26,0.00,,,0.00,VWS V14.01,2013-03-25 23:14:00,
2013-03-25 19:15:00,70.3,32.9,29.97,North,0,0.0,0.0,25,0.00,,,0.00,VWS V14.01,2013-03-25 23:15:00,
2013-03-25 19:16:00,70.3,31.9,29.97,North,0,0.0,0.0,24,0.00,,,0.00,VWS V14.01,2013-03-25 23:16:00,
2013-03-25 19:20:00,70.7,31.1,29.97,North,0,0.0,0.0,23,0.00,,,0.00,VWS V14.01,2013-03-25 23:20:00,
2013-03-25 19:22:00,70.9,31.3,29.97,North,0,0.0,0.0,23,0.00,,,0.00,VWS V14.01,2013-03-25 23:22:00,
2013-03-25 19:25:00,70.9,31.3,29.97,North,0,0.0,0.0,23,0.00,,,0.00,VWS V14.01,2013-03-25 23:25:00,
2013-03-25 19:27:00,71.1,30.3,29.97,North,0,0.0,0.0,22,0.00,,,0.00,VWS V14.01,2013-03-25 23:27:00,
2013-03-25 19:30:00,71.1,30.3,29.97,North,0,0.0,0.0,22,0.00,,,0.00,VWS V14.01,2013-03-25 23:30:00,
2013-03-25 19:31:00,71.1,30.3,29.97,North,0,0.0,0.0,22,0.00,,,0.00,VWS V14.01,2013-03-25 23:31:00,
2013-03-25 19:33:00,71.1,30.3,29.97,North,0,0.0,0.0,22,0.00,,,0.00,VWS V14.01,2013-03-25 23:33:00,
2013-03-25 19:35:00,71.1,30.3,29.97,North,0,0.0,0.0,22,0.00,,,0.00,VWS V14.01,2013-03-25 23:35:00,
2013-03-25 19:36:00,71.1,30.3,29.97,North,0,0.0,0.0,22,0.00,,,0.00,VWS V14.01,2013-03-25 23:36:00,
2013-03-25 19:39:00,71.1,30.3,29.97,North,0,0.0,0.0,22,0.00,,,0.00,VWS V14.01,2013-03-25 23:39:00,
2013-03-25 19:40:00,71.1,30.3,29.97,North,0,0.0,0.0,22,0.00,,,0.00,VWS V14.01,2013-03-25 23:40:00,
2013-03-25 19:42:00,70.9,30.2,29.97,North,0,0.0,0.0,22,0.00,,,0.00,VWS V14.01,2013-03-25 23:42:00,
2013-03-25 19:43:00,70.9,30.2,29.97,North,0,0.0,0.0,22,0.00,,,0.00,VWS V14.01,2013-03-25 23:43:00,
2013-03-25 19:47:00,70.9,30.2,29.97,North,0,0.0,0.0,22,0.00,,,0.00,VWS V14.01,2013-03-25 23:47:00,
2013-03-25 19:48:00,70.7,30.0,29.97,North,0,0.0,0.0,22,0.00,,,0.00,VWS V14.01,2013-03-25 23:48:00,
2013-03-25 19:51:00,70.7,31.1,29.97,North,0,0.0,0.0,23,0.00,,,0.00,VWS V14.01,2013-03-25 23:51:00,
2013-03-25 19:52:00,70.7,31.1,29.97,North,0,0.0,0.0,23,0.00,,,0.00,VWS V14.01,2013-03-25 23:52:00,
2013-03-25 19:55:00,70.5,31.0,29.97,North,0,0.0,0.0,23,0.00,,,0.00,VWS V14.01,2013-03-25 23:55:00,
2013-03-25 19:57:00,70.5,31.0,29.97,North,0,0.0,0.0,23,0.00,,,0.00,VWS V14.01,2013-03-25 23:57:00,
2013-03-25 19:58:00,70.5,31.0,29.97,North,0,0.0,0.0,23,0.00,,,0.00,VWS V14.01,2013-03-25 23:58:00,
2013-03-25 19:59:00,70.5,31.0,29.97,North,0,0.0,0.0,23,0.00,,,0.00,VWS V14.01,2013-03-25 23:59:00,
2013-03-25 20:03:00,70.3,30.8,29.97,North,0,0.0,0.0,23,0.00,,,0.00,VWS V14.01,2013-03-26 00:03:00,
2013-03-25 20:04:00,70.3,30.8,29.97,North,0,0.0,0.0,23,0.00,,,0.00,VWS V14.01,2013-03-26 00:04:00,
2013-03-25 20:05:00,70.3,30.8,29.97,North,0,0.0,0.0,23,0.00,,,0.00,VWS V14.01,2013-03-26 00:05:00,
2013-03-25 20:07:00,70.2,29.6,29.97,North,0,0.0,0.0,22,0.00,,,0.00,VWS V14.01,2013-03-26 00:07:00,
2013-03-25 20:10:00,70.0,30.5,29.97,North,0,0.0,0.0,23,0.00,,,0.00,VWS V14.01,2013-03-26 00:10:00,
2013-03-25 20:11:00,70.0,30.5,29.97,North,0,0.0,0.0,23,0.00,,,0.00,VWS V14.01,2013-03-26 00:11:00,
2013-03-25 20:12:00,69.8,30.4,29.97,North,0,0.0,0.0,23,0.00,,,0.00,VWS V14.01,2013-03-26 00:12:00,
2013-03-25 20:16:00,69.6,30.2,29.97,North,0,0.0,0.0,23,0.00,,,0.00,VWS V14.01,2013-03-26 00:16:00,
2013-03-25 20:18:00,69.4,30.1,29.97,North,0,0.0,0.0,23,0.00,,,0.00,VWS V14.01,2013-03-26 00:18:00,
2013-03-25 20:19:00,69.4,30.1,29.97,North,0,0.0,0.0,23,0.00,,,0.00,VWS V14.01,2013-03-26 00:19:00,
2013-03-25 20:22:00,69.3,29.9,29.97,North,0,0.0,0.0,23,0.00,,,0.00,VWS V14.01,2013-03-26 00:22:00,
2013-03-25 20:24:00,69.3,28.8,29.97,North,0,0.0,0.0,22,0.00,,,0.00,VWS V14.01,2013-03-26 00:24:00,
2013-03-25 20:27:00,69.1,28.7,29.97,North,0,0.0,0.0,22,0.00,,,0.00,VWS V14.01,2013-03-26 00:27:00,
2013-03-25 20:28:00,69.1,28.7,30.00,North,0,0.0,0.0,22,0.00,,,0.00,VWS V14.01,2013-03-26 00:28:00,
2013-03-25 20:30:00,68.9,28.5,30.00,North,0,0.0,0.0,22,0.00,,,0.00,VWS V14.01,2013-03-26 00:30:00,
2013-03-25 20:31:00,68.9,28.5,30.00,North,0,0.0,0.0,22,0.00,,,0.00,VWS V14.01,2013-03-26 00:31:00,
2013-03-25 20:33:00,68.7,28.4,30.00,North,0,0.0,0.0,22,0.00,,,0.00,VWS V14.01,2013-03-26 00:33:00,
2013-03-25 20:38:00,68.5,28.2,30.00,North,0,0.0,0.0,22,0.00,,,0.00,VWS V14.01,2013-03-26 00:38:00,
2013-03-25 20:39:00,68.5,28.2,30.00,North,0,0.0,0.0,22,0.00,,,0.00,VWS V14.01,2013-03-26 00:39:00,
2013-03-25 20:44:00,68.4,28.1,30.00,North,0,0.0,0.0,22,0.00,,,0.00,VWS V14.01,2013-03-26 00:44:00,
2013-03-25 20:45:00,68.4,28.1,30.00,North,0,0.0,0.0,22,0.00,,,0.00,VWS V14.01,2013-03-26 00:45:00,
2013-03-25 20:49:00,68.2,27.9,30.00,North,0,0.0,0.0,22,0.00,,,0.00,VWS V14.01,2013-03-26 00:49:00,
2013-03-25 20:50:00,68.0,27.8,30.00,North,0,0.0,0.0,22,0.00,,,0.00,VWS V14.01,2013-03-26 00:50:00,
2013-03-25 20:55:00,67.8,28.7,30.00,North,0,0.0,0.0,23,0.00,,,0.00,VWS V14.01,2013-03-26 00:55:00,
2013-03-25 20:57:00,67.8,28.7,30.00,North,0,0.0,0.0,23,0.00,,,0.00,VWS V14.01,2013-03-26 00:57:00,
2013-03-25 20:59:00,67.6,28.5,30.00,North,0,0.0,0.0,23,0.00,,,0.00,VWS V14.01,2013-03-26 00:59:00,
2013-03-25 21:00:00,67.6,28.5,30.00,North,0,0.0,0.0,23,0.00,,,0.00,VWS V14.01,2013-03-26 01:00:00,
2013-03-25 21:02:00,67.6,28.5,30.00,North,0,0.0,0.0,23,0.00,,,0.00,VWS V14.01,2013-03-26 01:02:00,
2013-03-25 21:04:00,67.5,28.4,30.00,North,0,0.0,0.0,23,0.00,,,0.00,VWS V14.01,2013-03-26 01:04:00,
2013-03-25 21:08:00,67.5,28.4,30.00,North,0,0.0,0.0,23,0.00,,,0.00,VWS V14.01,2013-03-26 01:08:00,
2013-03-25 21:11:00,67.3,28.2,30.00,North,0,0.0,0.0,23,0.00,,,0.00,VWS V14.01,2013-03-26 01:11:00,
2013-03-25 21:14:00,67.1,28.1,30.00,North,0,0.0,0.0,23,0.00,,,0.00,VWS V14.01,2013-03-26 01:14:00,
2013-03-25 21:15:00,67.1,28.1,30.00,North,0,0.0,0.0,23,0.00,,,0.00,VWS V14.01,2013-03-26 01:15:00,
2013-03-25 21:17:00,67.1,28.1,30.00,North,0,0.0,0.0,23,0.00,,,0.00,VWS V14.01,2013-03-26 01:17:00,
2013-03-25 21:21:00,66.9,29.0,30.00,North,0,0.0,0.0,24,0.00,,,0.00,VWS V14.01,2013-03-26 01:21:00,
2013-03-25 21:22:00,66.9,29.0,30.00,North,0,0.0,0.0,24,0.00,,,0.00,VWS V14.01,2013-03-26 01:22:00,
2013-03-25 21:26:00,66.7,28.8,30.00,North,0,0.0,0.0,24,0.00,,,0.00,VWS V14.01,2013-03-26 01:26:00,
2013-03-25 21:27:00,66.7,28.8,30.00,North,0,0.0,0.0,24,0.00,,,0.00,VWS V14.01,2013-03-26 01:27:00,
2013-03-25 21:30:00,66.6,28.7,30.00,North,0,0.0,0.0,24,0.00,,,0.00,VWS V14.01,2013-03-26 01:30:00,
2013-03-25 21:32:00,66.4,28.5,30.00,North,0,0.0,0.0,24,0.00,,,0.00,VWS V14.01,2013-03-26 01:32:00,
2013-03-25 21:36:00,66.4,29.5,30.00,North,0,0.0,0.0,25,0.00,,,0.00,VWS V14.01,2013-03-26 01:36:00,
2013-03-25 21:37:00,66.4,29.5,30.00,North,0,0.0,0.0,25,0.00,,,0.00,VWS V14.01,2013-03-26 01:37:00,
2013-03-25 21:39:00,66.2,30.3,30.00,North,0,0.0,0.0,26,0.00,,,0.00,VWS V14.01,2013-03-26 01:39:00,
2013-03-25 21:40:00,66.2,30.3,30.00,North,0,0.0,0.0,26,0.00,,,0.00,VWS V14.01,2013-03-26 01:40:00,
2013-03-25 21:45:00,66.0,31.1,30.03,North,0,0.0,0.0,27,0.00,,,0.00,VWS V14.01,2013-03-26 01:45:00,
2013-03-25 21:48:00,66.0,31.1,30.03,North,0,0.0,0.0,27,0.00,,,0.00,VWS V14.01,2013-03-26 01:48:00,
2013-03-25 21:51:00,65.8,30.0,30.03,North,0,0.0,0.0,26,0.00,,,0.00,VWS V14.01,2013-03-26 01:51:00,
2013-03-25 21:52:00,65.8,30.0,30.03,North,0,0.0,0.0,26,0.00,,,0.00,VWS V14.01,2013-03-26 01:52:00,
2013-03-25 21:53:00,65.8,31.0,30.03,North,0,0.0,0.0,27,0.00,,,0.00,VWS V14.01,2013-03-26 01:53:00,
2013-03-25 21:56:00,65.8,30.0,30.03,North,0,0.0,0.0,26,0.00,,,0.00,VWS V14.01,2013-03-26 01:56:00,
2013-03-25 21:57:00,65.8,30.0,30.03,North,0,0.0,0.0,26,0.00,,,0.00,VWS V14.01,2013-03-26 01:57:00,
2013-03-25 22:01:00,65.7,30.8,30.03,North,0,0.0,0.0,27,0.00,,,0.00,VWS V14.01,2013-03-26 02:01:00,
2013-03-25 22:02:00,65.7,30.8,30.03,North,0,0.0,0.0,27,0.00,,,0.00,VWS V14.01,2013-03-26 02:02:00,
2013-03-25 22:04:00,65.7,29.9,30.03,North,0,0.0,0.0,26,0.00,,,0.00,VWS V14.01,2013-03-26 02:04:00,
2013-03-25 22:07:00,65.7,29.9,30.03,North,0,0.0,0.0,26,0.00,,,0.00,VWS V14.01,2013-03-26 02:07:00,
2013-03-25 22:09:00,65.7,28.9,30.03,North,0,0.0,0.0,25,0.00,,,0.00,VWS V14.01,2013-03-26 02:09:00,
2013-03-25 22:13:00,65.5,28.8,30.03,North,0,0.0,0.0,25,0.00,,,0.00,VWS V14.01,2013-03-26 02:13:00,
2013-03-25 22:17:00,65.5,28.8,30.03,North,0,0.0,0.0,25,0.00,,,0.00,VWS V14.01,2013-03-26 02:17:00,
2013-03-25 22:19:00,65.5,28.8,30.03,North,0,0.0,0.0,25,0.00,,,0.00,VWS V14.01,2013-03-26 02:19:00,
2013-03-25 22:21:00,65.5,28.8,30.03,North,0,0.0,0.0,25,0.00,,,0.00,VWS V14.01,2013-03-26 02:21:00,
2013-03-25 22:22:00,65.5,28.8,30.03,North,0,0.0,0.0,25,0.00,,,0.00,VWS V14.01,2013-03-26 02:22:00,
2013-03-25 22:23:00,65.5,28.8,30.03,North,0,0.0,0.0,25,0.00,,,0.00,VWS V14.01,2013-03-26 02:23:00,
2013-03-25 22:27:00,65.3,28.6,30.03,North,0,0.0,0.0,25,0.00,,,0.00,VWS V14.01,2013-03-26 02:27:00,
2013-03-25 22:29:00,65.3,28.6,30.06,North,0,0.0,0.0,25,0.00,,,0.00,VWS V14.01,2013-03-26 02:29:00,
2013-03-25 22:30:00,65.3,28.6,30.06,North,0,0.0,0.0,25,0.00,,,0.00,VWS V14.01,2013-03-26 02:30:00,
2013-03-25 22:34:00,65.1,28.5,30.06,North,0,0.0,0.0,25,0.00,,,0.00,VWS V14.01,2013-03-26 02:34:00,
2013-03-25 22:35:00,65.1,28.5,30.06,North,0,0.0,0.0,25,0.00,,,0.00,VWS V14.01,2013-03-26 02:35:00,
2013-03-25 22:37:00,65.1,28.5,30.06,North,0,0.0,0.0,25,0.00,,,0.00,VWS V14.01,2013-03-26 02:37:00,
2013-03-25 22:38:00,65.1,28.5,30.06,North,0,0.0,0.0,25,0.00,,,0.00,VWS V14.01,2013-03-26 02:38:00,
2013-03-25 22:40:00,64.9,28.3,30.06,North,0,0.0,0.0,25,0.00,,,0.00,VWS V14.01,2013-03-26 02:40:00,
2013-03-25 22:41:00,64.9,28.3,30.06,North,0,0.0,0.0,25,0.00,,,0.00,VWS V14.01,2013-03-26 02:41:00,
2013-03-25 22:44:00,64.8,28.1,30.06,North,0,0.0,0.0,25,0.00,,,0.00,VWS V14.01,2013-03-26 02:44:00,
2013-03-25 22:48:00,64.8,29.1,30.06,North,0,0.0,0.0,26,0.00,,,0.00,VWS V14.01,2013-03-26 02:48:00,
2013-03-25 22:49:00,64.8,30.0,30.06,North,0,0.0,0.0,27,0.00,,,0.00,VWS V14.01,2013-03-26 02:49:00,
2013-03-25 22:53:00,64.6,30.8,30.06,North,0,0.0,0.0,28,0.00,,,0.00,VWS V14.01,2013-03-26 02:53:00,
2013-03-25 22:58:00,64.2,34.5,30.06,North,0,0.0,0.0,33,0.00,,,0.00,VWS V14.01,2013-03-26 02:58:00,
2013-03-25 22:59:00,64.2,34.5,30.06,North,0,0.0,0.0,33,0.00,,,0.00,VWS V14.01,2013-03-26 02:59:00,
2013-03-25 23:00:00,64.0,35.1,30.06,North,0,0.0,0.0,34,0.00,,,0.00,VWS V14.01,2013-03-26 03:00:00,
2013-03-25 23:04:00,63.9,35.0,30.06,North,0,0.0,0.0,34,0.00,,,0.00,VWS V14.01,2013-03-26 03:04:00,
2013-03-25 23:05:00,63.9,35.0,30.06,North,0,0.0,0.0,34,0.00,,,0.00,VWS V14.01,2013-03-26 03:05:00,
2013-03-25 23:07:00,63.7,34.8,30.06,North,0,0.0,0.0,34,0.00,,,0.00,VWS V14.01,2013-03-26 03:07:00,
2013-03-25 23:08:00,63.7,35.5,30.06,North,0,0.0,0.0,35,0.00,,,0.00,VWS V14.01,2013-03-26 03:08:00,
2013-03-25 23:10:00,63.7,35.5,30.06,North,0,0.0,0.0,35,0.00,,,0.00,VWS V14.01,2013-03-26 03:10:00,
2013-03-25 23:13:00,63.5,35.4,30.06,North,0,0.0,0.0,35,0.00,,,0.00,VWS V14.01,2013-03-26 03:13:00,
2013-03-25 23:14:00,63.3,35.2,30.06,North,0,0.0,0.0,35,0.00,,,0.00,VWS V14.01,2013-03-26 03:14:00,
2013-03-25 23:17:00,63.3,35.2,30.06,North,0,0.0,0.0,35,0.00,,,0.00,VWS V14.01,2013-03-26 03:17:00,
2013-03-25 23:18:00,63.1,35.1,30.06,North,0,0.0,0.0,35,0.00,,,0.00,VWS V14.01,2013-03-26 03:18:00,
2013-03-25 23:19:00,63.1,35.1,30.06,North,0,0.0,0.0,35,0.00,,,0.00,VWS V14.01,2013-03-26 03:19:00,
2013-03-25 23:21:00,63.1,35.1,30.06,North,0,0.0,0.0,35,0.00,,,0.00,VWS V14.01,2013-03-26 03:21:00,
2013-03-25 23:23:00,63.1,35.1,30.06,North,0,0.0,0.0,35,0.00,,,0.00,VWS V14.01,2013-03-26 03:23:00,
2013-03-25 23:24:00,63.0,34.9,30.06,North,0,0.0,0.0,35,0.00,,,0.00,VWS V14.01,2013-03-26 03:24:00,
2013-03-25 23:27:00,63.0,35.6,30.06,North,0,0.0,0.0,36,0.00,,,0.00,VWS V14.01,2013-03-26 03:27:00,
2013-03-25 23:29:00,62.8,35.5,30.06,North,0,0.0,0.0,36,0.00,,,0.00,VWS V14.01,2013-03-26 03:29:00,
2013-03-25 23:32:00,62.8,36.2,30.06,North,0,0.0,0.0,37,0.00,,,0.00,VWS V14.01,2013-03-26 03:32:00,
2013-03-25 23:33:00,62.8,35.5,30.06,North,0,0.0,0.0,36,0.00,,,0.00,VWS V14.01,2013-03-26 03:33:00,
2013-03-25 23:34:00,62.6,35.3,30.06,North,0,0.0,0.0,36,0.00,,,0.00,VWS V14.01,2013-03-26 03:34:00,
2013-03-25 23:38:00,62.4,35.1,30.06,North,0,0.0,0.0,36,0.00,,,0.00,VWS V14.01,2013-03-26 03:38:00,
2013-03-25 23:39:00,62.4,35.1,30.06,North,0,0.0,0.0,36,0.00,,,0.00,VWS V14.01,2013-03-26 03:39:00,
2013-03-25 23:41:00,62.2,35.0,30.06,North,0,0.0,0.0,36,0.00,,,0.00,VWS V14.01,2013-03-26 03:41:00,
2013-03-25 23:44:00,62.2,35.0,30.06,North,0,0.0,0.0,36,0.00,,,0.00,VWS V14.01,2013-03-26 03:44:00,
2013-03-25 23:45:00,62.2,35.0,30.06,North,0,0.0,0.0,36,0.00,,,0.00,VWS V14.01,2013-03-26 03:45:00,
2013-03-25 23:50:00,62.1,34.8,30.06,North,0,0.0,0.0,36,0.00,,,0.00,VWS V14.01,2013-03-26 03:50:00,
2013-03-25 23:51:00,61.9,34.7,30.06,North,0,0.0,0.0,36,0.00,,,0.00,VWS V14.01,2013-03-26 03:51:00,
2013-03-25 23:54:00,61.9,34.0,30.06,North,0,0.0,0.0,35,0.00,,,0.00,VWS V14.01,2013-03-26 03:54:00,
2013-03-25 23:57:00,61.7,34.5,30.06,North,0,0.0,0.0,36,0.00,,,0.00,VWS V14.01,2013-03-26 03:57:00,